<?xml version="1.0" encoding="UTF-8" standalone="no" ?><gpx xmlns="http://www.topografix.com/GPX/1/1" xmlns:gpxx="http://www.garmin.com/xmlschemas/GpxExtensions/v3" xmlns:wptx1="http://www.garmin.com/xmlschemas/WaypointExtension/v1" xmlns:gpxtpx="http://www.garmin.com/xmlschemas/TrackPointExtension/v1" creator="GuideVTT.com" version="1.1" xmlns:xsi="http://www.w3.org/2001/XMLSchema-instance" xsi:schemaLocation="http://www.topografix.com/GPX/1/1 http://www.topografix.com/GPX/1/1/gpx.xsd http://www.garmin.com/xmlschemas/GpxExtensions/v3 http://www8.garmin.com/xmlschemas/GpxExtensionsv3.xsd http://www.garmin.com/xmlschemas/WaypointExtension/v1 http://www8.garmin.com/xmlschemas/WaypointExtensionv1.xsd http://www.garmin.com/xmlschemas/TrackPointExtension/v1 http://www.garmin.com/xmlschemas/TrackPointExtensionv1.xsd">
<metadata><link href="http://www.garmin.com"><text>Garmin International</text></link><time>2013-06-22T15:13:50Z</time></metadata>
<trk><name>aigle-bretaye.gpx</name><extensions><gpxx:TrackExtension><gpxx:DisplayColor>Cyan</gpxx:DisplayColor></gpxx:TrackExtension></extensions><trkseg>
<trkpt lat="46.31585193" lon="6.98138396"><ele></ele><time>2014-4-1T3:46:47Z</time></trkpt>
<trkpt lat="46.31586894" lon="6.98146594"><ele></ele><time>2014-4-1T3:46:50Z</time></trkpt>
<trkpt lat="46.31588395" lon="6.98154096"><ele></ele><time>2014-4-1T3:46:53Z</time></trkpt>
<trkpt lat="46.31592795" lon="6.98171597"><ele></ele><time>2014-4-1T3:46:56Z</time></trkpt>
<trkpt lat="46.31599199" lon="6.98199299"><ele></ele><time>2014-4-1T3:46:59Z</time></trkpt>
<trkpt lat="46.31602292" lon="6.98218192"><ele></ele><time>2014-4-1T3:47:2Z</time></trkpt>
<trkpt lat="46.31603097" lon="6.98236096"><ele></ele><time>2014-4-1T3:47:5Z</time></trkpt>
<trkpt lat="46.31599392" lon="6.98254393"><ele></ele><time>2014-4-1T3:47:8Z</time></trkpt>
<trkpt lat="46.31592393" lon="6.98273194"><ele></ele><time>2014-4-1T3:47:11Z</time></trkpt>
<trkpt lat="46.31578697" lon="6.98297200"><ele></ele><time>2014-4-1T3:47:14Z</time></trkpt>
<trkpt lat="46.31567398" lon="6.98322597"><ele></ele><time>2014-4-1T3:47:17Z</time></trkpt>
<trkpt lat="46.31559796" lon="6.98338196"><ele></ele><time>2014-4-1T3:47:20Z</time></trkpt>
<trkpt lat="46.31552093" lon="6.98354700"><ele></ele><time>2014-4-1T3:47:23Z</time></trkpt>
<trkpt lat="46.31549997" lon="6.98371095"><ele></ele><time>2014-4-1T3:47:26Z</time></trkpt>
<trkpt lat="46.31548296" lon="6.98394698"><ele></ele><time>2014-4-1T3:47:29Z</time></trkpt>
<trkpt lat="46.31544993" lon="6.98424395"><ele></ele><time>2014-4-1T3:47:32Z</time></trkpt>
<trkpt lat="46.31543593" lon="6.98441897"><ele></ele><time>2014-4-1T3:47:35Z</time></trkpt>
<trkpt lat="46.31541297" lon="6.98454897"><ele></ele><time>2014-4-1T3:47:38Z</time></trkpt>
<trkpt lat="46.31550592" lon="6.98473798"><ele></ele><time>2014-4-1T3:47:41Z</time></trkpt>
<trkpt lat="46.31552696" lon="6.98477796"><ele></ele><time>2014-4-1T3:47:44Z</time></trkpt>
<trkpt lat="46.31553493" lon="6.98496999"><ele></ele><time>2014-4-1T3:47:47Z</time></trkpt>
<trkpt lat="46.31551498" lon="6.98522497"><ele></ele><time>2014-4-1T3:47:50Z</time></trkpt>
<trkpt lat="46.31551992" lon="6.98547995"><ele></ele><time>2014-4-1T3:47:53Z</time></trkpt>
<trkpt lat="46.31552897" lon="6.98580198"><ele></ele><time>2014-4-1T3:47:56Z</time></trkpt>
<trkpt lat="46.31553895" lon="6.98589996"><ele></ele><time>2014-4-1T3:47:59Z</time></trkpt>
<trkpt lat="46.31545798" lon="6.98598093"><ele></ele><time>2014-4-1T3:48:2Z</time></trkpt>
<trkpt lat="46.31530199" lon="6.98593399"><ele></ele><time>2014-4-1T3:48:5Z</time></trkpt>
<trkpt lat="46.31517693" lon="6.98590793"><ele></ele><time>2014-4-1T3:48:8Z</time></trkpt>
<trkpt lat="46.31506294" lon="6.98585797"><ele></ele><time>2014-4-1T3:48:11Z</time></trkpt>
<trkpt lat="46.31498298" lon="6.98571992"><ele></ele><time>2014-4-1T3:48:14Z</time></trkpt>
<trkpt lat="46.31496294" lon="6.98547299"><ele></ele><time>2014-4-1T3:48:17Z</time></trkpt>
<trkpt lat="46.31495892" lon="6.98521298"><ele></ele><time>2014-4-1T3:48:20Z</time></trkpt>
<trkpt lat="46.31488097" lon="6.98509899"><ele></ele><time>2014-4-1T3:48:23Z</time></trkpt>
<trkpt lat="46.31473496" lon="6.98507594"><ele></ele><time>2014-4-1T3:48:26Z</time></trkpt>
<trkpt lat="46.31447495" lon="6.98522799"><ele></ele><time>2014-4-1T3:48:29Z</time></trkpt>
<trkpt lat="46.31419198" lon="6.98546193"><ele></ele><time>2014-4-1T3:48:32Z</time></trkpt>
<trkpt lat="46.31387992" lon="6.98557994"><ele></ele><time>2014-4-1T3:48:35Z</time></trkpt>
<trkpt lat="46.31354699" lon="6.98550300"><ele></ele><time>2014-4-1T3:48:38Z</time></trkpt>
<trkpt lat="46.31335597" lon="6.98539093"><ele></ele><time>2014-4-1T3:48:41Z</time></trkpt>
<trkpt lat="46.31307400" lon="6.98530795"><ele></ele><time>2014-4-1T3:48:44Z</time></trkpt>
<trkpt lat="46.31287292" lon="6.98528398"><ele></ele><time>2014-4-1T3:48:47Z</time></trkpt>
<trkpt lat="46.31270796" lon="6.98522195"><ele></ele><time>2014-4-1T3:48:50Z</time></trkpt>
<trkpt lat="46.31252700" lon="6.98520997"><ele></ele><time>2014-4-1T3:48:53Z</time></trkpt>
<trkpt lat="46.31231393" lon="6.98514895"><ele></ele><time>2014-4-1T3:48:56Z</time></trkpt>
<trkpt lat="46.31210597" lon="6.98509295"><ele></ele><time>2014-4-1T3:48:59Z</time></trkpt>
<trkpt lat="46.31186600" lon="6.98508692"><ele></ele><time>2014-4-1T3:49:2Z</time></trkpt>
<trkpt lat="46.31164698" lon="6.98510595"><ele></ele><time>2014-4-1T3:49:5Z</time></trkpt>
<trkpt lat="46.31146694" lon="6.98509396"><ele></ele><time>2014-4-1T3:49:8Z</time></trkpt>
<trkpt lat="46.31121498" lon="6.98506898"><ele></ele><time>2014-4-1T3:49:11Z</time></trkpt>
<trkpt lat="46.31103393" lon="6.98506395"><ele></ele><time>2014-4-1T3:49:14Z</time></trkpt>
<trkpt lat="46.31081994" lon="6.98502799"><ele></ele><time>2014-4-1T3:49:17Z</time></trkpt>
<trkpt lat="46.31061299" lon="6.98498994"><ele></ele><time>2014-4-1T3:49:20Z</time></trkpt>
<trkpt lat="46.31046697" lon="6.98497997"><ele></ele><time>2014-4-1T3:49:23Z</time></trkpt>
<trkpt lat="46.31037494" lon="6.98495197"><ele></ele><time>2014-4-1T3:49:26Z</time></trkpt>
<trkpt lat="46.31028492" lon="6.98492993"><ele></ele><time>2014-4-1T3:49:29Z</time></trkpt>
<trkpt lat="46.31019398" lon="6.98489095"><ele></ele><time>2014-4-1T3:49:32Z</time></trkpt>
<trkpt lat="46.31012198" lon="6.98475500"><ele></ele><time>2014-4-1T3:49:35Z</time></trkpt>
<trkpt lat="46.31011292" lon="6.98453397"><ele></ele><time>2014-4-1T3:49:38Z</time></trkpt>
<trkpt lat="46.31014293" lon="6.98437295"><ele></ele><time>2014-4-1T3:49:41Z</time></trkpt>
<trkpt lat="46.31016397" lon="6.98412694"><ele></ele><time>2014-4-1T3:49:44Z</time></trkpt>
<trkpt lat="46.31013597" lon="6.98400599"><ele></ele><time>2014-4-1T3:49:47Z</time></trkpt>
<trkpt lat="46.31007093" lon="6.98389099"><ele></ele><time>2014-4-1T3:49:50Z</time></trkpt>
<trkpt lat="46.31000999" lon="6.98380298"><ele></ele><time>2014-4-1T3:49:53Z</time></trkpt>
<trkpt lat="46.30993992" lon="6.98367096"><ele></ele><time>2014-4-1T3:49:56Z</time></trkpt>
<trkpt lat="46.30984797" lon="6.98354892"><ele></ele><time>2014-4-1T3:49:59Z</time></trkpt>
<trkpt lat="46.30973792" lon="6.98348698"><ele></ele><time>2014-4-1T3:50:2Z</time></trkpt>
<trkpt lat="46.30956894" lon="6.98340492"><ele></ele><time>2014-4-1T3:50:5Z</time></trkpt>
<trkpt lat="46.30941496" lon="6.98328397"><ele></ele><time>2014-4-1T3:50:8Z</time></trkpt>
<trkpt lat="46.30931497" lon="6.98323293"><ele></ele><time>2014-4-1T3:50:11Z</time></trkpt>
<trkpt lat="46.30919100" lon="6.98319294"><ele></ele><time>2014-4-1T3:50:14Z</time></trkpt>
<trkpt lat="46.30903996" lon="6.98311600"><ele></ele><time>2014-4-1T3:50:17Z</time></trkpt>
<trkpt lat="46.30878196" lon="6.98295197"><ele></ele><time>2014-4-1T3:50:20Z</time></trkpt>
<trkpt lat="46.30856898" lon="6.98286999"><ele></ele><time>2014-4-1T3:50:23Z</time></trkpt>
<trkpt lat="46.30840796" lon="6.98285096"><ele></ele><time>2014-4-1T3:50:26Z</time></trkpt>
<trkpt lat="46.30829497" lon="6.98279799"><ele></ele><time>2014-4-1T3:50:29Z</time></trkpt>
<trkpt lat="46.30815499" lon="6.98268299"><ele></ele><time>2014-4-1T3:50:32Z</time></trkpt>
<trkpt lat="46.30811996" lon="6.98261895"><ele></ele><time>2014-4-1T3:50:35Z</time></trkpt>
<trkpt lat="46.30798099" lon="6.98245400"><ele></ele><time>2014-4-1T3:50:38Z</time></trkpt>
<trkpt lat="46.30794696" lon="6.98239096"><ele></ele><time>2014-4-1T3:50:41Z</time></trkpt>
<trkpt lat="46.30783296" lon="6.98202895"><ele></ele><time>2014-4-1T3:50:44Z</time></trkpt>
<trkpt lat="46.30773992" lon="6.98187992"><ele></ele><time>2014-4-1T3:50:47Z</time></trkpt>
<trkpt lat="46.30754898" lon="6.98178395"><ele></ele><time>2014-4-1T3:50:50Z</time></trkpt>
<trkpt lat="46.30734597" lon="6.98170993"><ele></ele><time>2014-4-1T3:50:53Z</time></trkpt>
<trkpt lat="46.30713399" lon="6.98171597"><ele></ele><time>2014-4-1T3:50:56Z</time></trkpt>
<trkpt lat="46.30689595" lon="6.98165998"><ele></ele><time>2014-4-1T3:50:59Z</time></trkpt>
<trkpt lat="46.30642899" lon="6.98141095"><ele></ele><time>2014-4-1T3:51:2Z</time></trkpt>
<trkpt lat="46.30620000" lon="6.98144197"><ele></ele><time>2014-4-1T3:51:5Z</time></trkpt>
<trkpt lat="46.30610394" lon="6.98158697"><ele></ele><time>2014-4-1T3:51:8Z</time></trkpt>
<trkpt lat="46.30590596" lon="6.98178696"><ele></ele><time>2014-4-1T3:51:11Z</time></trkpt>
<trkpt lat="46.30579499" lon="6.98179794"><ele></ele><time>2014-4-1T3:51:14Z</time></trkpt>
<trkpt lat="46.30559692" lon="6.98166199"><ele></ele><time>2014-4-1T3:51:17Z</time></trkpt>
<trkpt lat="46.30546893" lon="6.98159292"><ele></ele><time>2014-4-1T3:51:20Z</time></trkpt>
<trkpt lat="46.30536994" lon="6.98168797"><ele></ele><time>2014-4-1T3:51:23Z</time></trkpt>
<trkpt lat="46.30537698" lon="6.98184899"><ele></ele><time>2014-4-1T3:51:26Z</time></trkpt>
<trkpt lat="46.30546692" lon="6.98200699"><ele></ele><time>2014-4-1T3:51:29Z</time></trkpt>
<trkpt lat="46.30557999" lon="6.98215996"><ele></ele><time>2014-4-1T3:51:32Z</time></trkpt>
<trkpt lat="46.30567194" lon="6.98228795"><ele></ele><time>2014-4-1T3:51:35Z</time></trkpt>
<trkpt lat="46.30578996" lon="6.98237998"><ele></ele><time>2014-4-1T3:51:38Z</time></trkpt>
<trkpt lat="46.30593698" lon="6.98246196"><ele></ele><time>2014-4-1T3:51:41Z</time></trkpt>
<trkpt lat="46.30605793" lon="6.98251493"><ele></ele><time>2014-4-1T3:51:44Z</time></trkpt>
<trkpt lat="46.30623093" lon="6.98256900"><ele></ele><time>2014-4-1T3:51:47Z</time></trkpt>
<trkpt lat="46.30635297" lon="6.98265298"><ele></ele><time>2014-4-1T3:51:50Z</time></trkpt>
<trkpt lat="46.30643193" lon="6.98274996"><ele></ele><time>2014-4-1T3:51:53Z</time></trkpt>
<trkpt lat="46.30655397" lon="6.98295792"><ele></ele><time>2014-4-1T3:51:56Z</time></trkpt>
<trkpt lat="46.30666494" lon="6.98310100"><ele></ele><time>2014-4-1T3:51:59Z</time></trkpt>
<trkpt lat="46.30674399" lon="6.98321600"><ele></ele><time>2014-4-1T3:52:2Z</time></trkpt>
<trkpt lat="46.30682495" lon="6.98346796"><ele></ele><time>2014-4-1T3:52:5Z</time></trkpt>
<trkpt lat="46.30689595" lon="6.98363794"><ele></ele><time>2014-4-1T3:52:8Z</time></trkpt>
<trkpt lat="46.30699796" lon="6.98377993"><ele></ele><time>2014-4-1T3:52:11Z</time></trkpt>
<trkpt lat="46.30707297" lon="6.98390599"><ele></ele><time>2014-4-1T3:52:14Z</time></trkpt>
<trkpt lat="46.30709393" lon="6.98394899"><ele></ele><time>2014-4-1T3:52:17Z</time></trkpt>
<trkpt lat="46.30715998" lon="6.98403399"><ele></ele><time>2014-4-1T3:52:20Z</time></trkpt>
<trkpt lat="46.30719895" lon="6.98418193"><ele></ele><time>2014-4-1T3:52:23Z</time></trkpt>
<trkpt lat="46.30726199" lon="6.98428796"><ele></ele><time>2014-4-1T3:52:26Z</time></trkpt>
<trkpt lat="46.30731999" lon="6.98438393"><ele></ele><time>2014-4-1T3:52:29Z</time></trkpt>
<trkpt lat="46.30741898" lon="6.98459893"><ele></ele><time>2014-4-1T3:52:32Z</time></trkpt>
<trkpt lat="46.30748997" lon="6.98477796"><ele></ele><time>2014-4-1T3:52:35Z</time></trkpt>
<trkpt lat="46.30756893" lon="6.98501400"><ele></ele><time>2014-4-1T3:52:38Z</time></trkpt>
<trkpt lat="46.30760397" lon="6.98520795"><ele></ele><time>2014-4-1T3:52:41Z</time></trkpt>
<trkpt lat="46.30759592" lon="6.98540392"><ele></ele><time>2014-4-1T3:52:44Z</time></trkpt>
<trkpt lat="46.30762199" lon="6.98547894"><ele></ele><time>2014-4-1T3:52:47Z</time></trkpt>
<trkpt lat="46.30772693" lon="6.98571296"><ele></ele><time>2014-4-1T3:52:50Z</time></trkpt>
<trkpt lat="46.30776498" lon="6.98583593"><ele></ele><time>2014-4-1T3:52:53Z</time></trkpt>
<trkpt lat="46.30782693" lon="6.98600197"><ele></ele><time>2014-4-1T3:52:56Z</time></trkpt>
<trkpt lat="46.30792198" lon="6.98615796"><ele></ele><time>2014-4-1T3:52:59Z</time></trkpt>
<trkpt lat="46.30803999" lon="6.98635493"><ele></ele><time>2014-4-1T3:53:2Z</time></trkpt>
<trkpt lat="46.30806497" lon="6.98646097"><ele></ele><time>2014-4-1T3:53:5Z</time></trkpt>
<trkpt lat="46.30810294" lon="6.98663196"><ele></ele><time>2014-4-1T3:53:8Z</time></trkpt>
<trkpt lat="46.30816799" lon="6.98680295"><ele></ele><time>2014-4-1T3:53:11Z</time></trkpt>
<trkpt lat="46.30825994" lon="6.98700193"><ele></ele><time>2014-4-1T3:53:14Z</time></trkpt>
<trkpt lat="46.30835398" lon="6.98714795"><ele></ele><time>2014-4-1T3:53:17Z</time></trkpt>
<trkpt lat="46.30843797" lon="6.98731592"><ele></ele><time>2014-4-1T3:53:20Z</time></trkpt>
<trkpt lat="46.30852598" lon="6.98753997"><ele></ele><time>2014-4-1T3:53:23Z</time></trkpt>
<trkpt lat="46.30858197" lon="6.98775195"><ele></ele><time>2014-4-1T3:53:26Z</time></trkpt>
<trkpt lat="46.30862698" lon="6.98791598"><ele></ele><time>2014-4-1T3:53:29Z</time></trkpt>
<trkpt lat="46.30865699" lon="6.98807993"><ele></ele><time>2014-4-1T3:53:32Z</time></trkpt>
<trkpt lat="46.30872396" lon="6.98821295"><ele></ele><time>2014-4-1T3:53:35Z</time></trkpt>
<trkpt lat="46.30881792" lon="6.98834698"><ele></ele><time>2014-4-1T3:53:38Z</time></trkpt>
<trkpt lat="46.30899193" lon="6.98853599"><ele></ele><time>2014-4-1T3:53:41Z</time></trkpt>
<trkpt lat="46.30913995" lon="6.98864194"><ele></ele><time>2014-4-1T3:53:44Z</time></trkpt>
<trkpt lat="46.30927892" lon="6.98861293"><ele></ele><time>2014-4-1T3:53:47Z</time></trkpt>
<trkpt lat="46.30933592" lon="6.98850397"><ele></ele><time>2014-4-1T3:53:50Z</time></trkpt>
<trkpt lat="46.30938898" lon="6.98837698"><ele></ele><time>2014-4-1T3:53:53Z</time></trkpt>
<trkpt lat="46.30952996" lon="6.98834396"><ele></ele><time>2014-4-1T3:53:56Z</time></trkpt>
<trkpt lat="46.30968997" lon="6.98841093"><ele></ele><time>2014-4-1T3:53:59Z</time></trkpt>
<trkpt lat="46.30989399" lon="6.98841596"><ele></ele><time>2014-4-1T3:54:2Z</time></trkpt>
<trkpt lat="46.30996197" lon="6.98843792"><ele></ele><time>2014-4-1T3:54:5Z</time></trkpt>
<trkpt lat="46.31010295" lon="6.98850598"><ele></ele><time>2014-4-1T3:54:8Z</time></trkpt>
<trkpt lat="46.31024100" lon="6.98864194"><ele></ele><time>2014-4-1T3:54:11Z</time></trkpt>
<trkpt lat="46.31038098" lon="6.98879398"><ele></ele><time>2014-4-1T3:54:14Z</time></trkpt>
<trkpt lat="46.31046798" lon="6.98887696"><ele></ele><time>2014-4-1T3:54:17Z</time></trkpt>
<trkpt lat="46.31061198" lon="6.98891493"><ele></ele><time>2014-4-1T3:54:20Z</time></trkpt>
<trkpt lat="46.31081298" lon="6.98891192"><ele></ele><time>2014-4-1T3:54:23Z</time></trkpt>
<trkpt lat="46.31103996" lon="6.98890697"><ele></ele><time>2014-4-1T3:54:26Z</time></trkpt>
<trkpt lat="46.31118899" lon="6.98899599"><ele></ele><time>2014-4-1T3:54:29Z</time></trkpt>
<trkpt lat="46.31122797" lon="6.98904192"><ele></ele><time>2014-4-1T3:54:32Z</time></trkpt>
<trkpt lat="46.31116594" lon="6.98906296"><ele></ele><time>2014-4-1T3:54:35Z</time></trkpt>
<trkpt lat="46.31103493" lon="6.98907897"><ele></ele><time>2014-4-1T3:54:38Z</time></trkpt>
<trkpt lat="46.31090200" lon="6.98912297"><ele></ele><time>2014-4-1T3:54:41Z</time></trkpt>
<trkpt lat="46.31078398" lon="6.98920495"><ele></ele><time>2014-4-1T3:54:44Z</time></trkpt>
<trkpt lat="46.31062196" lon="6.98930000"><ele></ele><time>2014-4-1T3:54:47Z</time></trkpt>
<trkpt lat="46.31042800" lon="6.98938994"><ele></ele><time>2014-4-1T3:54:50Z</time></trkpt>
<trkpt lat="46.31023496" lon="6.98943696"><ele></ele><time>2014-4-1T3:54:53Z</time></trkpt>
<trkpt lat="46.31005995" lon="6.98946093"><ele></ele><time>2014-4-1T3:54:56Z</time></trkpt>
<trkpt lat="46.30991494" lon="6.98945699"><ele></ele><time>2014-4-1T3:54:59Z</time></trkpt>
<trkpt lat="46.30975292" lon="6.98944895"><ele></ele><time>2014-4-1T3:55:2Z</time></trkpt>
<trkpt lat="46.30964798" lon="6.98945800"><ele></ele><time>2014-4-1T3:55:5Z</time></trkpt>
<trkpt lat="46.30947095" lon="6.98938692"><ele></ele><time>2014-4-1T3:55:8Z</time></trkpt>
<trkpt lat="46.30931597" lon="6.98926496"><ele></ele><time>2014-4-1T3:55:11Z</time></trkpt>
<trkpt lat="46.30918295" lon="6.98915600"><ele></ele><time>2014-4-1T3:55:14Z</time></trkpt>
<trkpt lat="46.30912093" lon="6.98908492"><ele></ele><time>2014-4-1T3:55:17Z</time></trkpt>
<trkpt lat="46.30896192" lon="6.98895995"><ele></ele><time>2014-4-1T3:55:20Z</time></trkpt>
<trkpt lat="46.30884994" lon="6.98890798"><ele></ele><time>2014-4-1T3:55:23Z</time></trkpt>
<trkpt lat="46.30870694" lon="6.98889599"><ele></ele><time>2014-4-1T3:55:26Z</time></trkpt>
<trkpt lat="46.30860695" lon="6.98892399"><ele></ele><time>2014-4-1T3:55:29Z</time></trkpt>
<trkpt lat="46.30855892" lon="6.98891393"><ele></ele><time>2014-4-1T3:55:32Z</time></trkpt>
<trkpt lat="46.30842799" lon="6.98888392"><ele></ele><time>2014-4-1T3:55:35Z</time></trkpt>
<trkpt lat="46.30833294" lon="6.98881192"><ele></ele><time>2014-4-1T3:55:38Z</time></trkpt>
<trkpt lat="46.30824393" lon="6.98869399"><ele></ele><time>2014-4-1T3:55:41Z</time></trkpt>
<trkpt lat="46.30814100" lon="6.98858796"><ele></ele><time>2014-4-1T3:55:44Z</time></trkpt>
<trkpt lat="46.30802399" lon="6.98839400"><ele></ele><time>2014-4-1T3:55:47Z</time></trkpt>
<trkpt lat="46.30791795" lon="6.98824799"><ele></ele><time>2014-4-1T3:55:50Z</time></trkpt>
<trkpt lat="46.30779499" lon="6.98810893"><ele></ele><time>2014-4-1T3:55:53Z</time></trkpt>
<trkpt lat="46.30769793" lon="6.98799494"><ele></ele><time>2014-4-1T3:55:56Z</time></trkpt>
<trkpt lat="46.30760799" lon="6.98785898"><ele></ele><time>2014-4-1T3:55:59Z</time></trkpt>
<trkpt lat="46.30750397" lon="6.98770694"><ele></ele><time>2014-4-1T3:56:2Z</time></trkpt>
<trkpt lat="46.30743599" lon="6.98762094"><ele></ele><time>2014-4-1T3:56:5Z</time></trkpt>
<trkpt lat="46.30733499" lon="6.98746897"><ele></ele><time>2014-4-1T3:56:8Z</time></trkpt>
<trkpt lat="46.30728093" lon="6.98729295"><ele></ele><time>2014-4-1T3:56:11Z</time></trkpt>
<trkpt lat="46.30720197" lon="6.98715298"><ele></ele><time>2014-4-1T3:56:14Z</time></trkpt>
<trkpt lat="46.30713793" lon="6.98698794"><ele></ele><time>2014-4-1T3:56:17Z</time></trkpt>
<trkpt lat="46.30708999" lon="6.98686799"><ele></ele><time>2014-4-1T3:56:20Z</time></trkpt>
<trkpt lat="46.30696493" lon="6.98669197"><ele></ele><time>2014-4-1T3:56:23Z</time></trkpt>
<trkpt lat="46.30690894" lon="6.98656892"><ele></ele><time>2014-4-1T3:56:26Z</time></trkpt>
<trkpt lat="46.30679595" lon="6.98645694"><ele></ele><time>2014-4-1T3:56:29Z</time></trkpt>
<trkpt lat="46.30664692" lon="6.98645694"><ele></ele><time>2014-4-1T3:56:32Z</time></trkpt>
<trkpt lat="46.30654793" lon="6.98641998"><ele></ele><time>2014-4-1T3:56:35Z</time></trkpt>
<trkpt lat="46.30643394" lon="6.98635795"><ele></ele><time>2014-4-1T3:56:38Z</time></trkpt>
<trkpt lat="46.30641500" lon="6.98634798"><ele></ele><time>2014-4-1T3:56:41Z</time></trkpt>
<trkpt lat="46.30631793" lon="6.98625695"><ele></ele><time>2014-4-1T3:56:44Z</time></trkpt>
<trkpt lat="46.30619396" lon="6.98613793"><ele></ele><time>2014-4-1T3:56:47Z</time></trkpt>
<trkpt lat="46.30598098" lon="6.98597599"><ele></ele><time>2014-4-1T3:56:50Z</time></trkpt>
<trkpt lat="46.30579700" lon="6.98587792"><ele></ele><time>2014-4-1T3:56:53Z</time></trkpt>
<trkpt lat="46.30556599" lon="6.98575797"><ele></ele><time>2014-4-1T3:56:56Z</time></trkpt>
<trkpt lat="46.30541596" lon="6.98566192"><ele></ele><time>2014-4-1T3:56:59Z</time></trkpt>
<trkpt lat="46.30531294" lon="6.98564398"><ele></ele><time>2014-4-1T3:57:2Z</time></trkpt>
<trkpt lat="46.30526592" lon="6.98575999"><ele></ele><time>2014-4-1T3:57:5Z</time></trkpt>
<trkpt lat="46.30528193" lon="6.98578295"><ele></ele><time>2014-4-1T3:57:8Z</time></trkpt>
<trkpt lat="46.30541495" lon="6.98588697"><ele></ele><time>2014-4-1T3:57:11Z</time></trkpt>
<trkpt lat="46.30556993" lon="6.98598496"><ele></ele><time>2014-4-1T3:57:14Z</time></trkpt>
<trkpt lat="46.30569499" lon="6.98606593"><ele></ele><time>2014-4-1T3:57:17Z</time></trkpt>
<trkpt lat="46.30580999" lon="6.98619392"><ele></ele><time>2014-4-1T3:57:20Z</time></trkpt>
<trkpt lat="46.30588492" lon="6.98629199"><ele></ele><time>2014-4-1T3:57:23Z</time></trkpt>
<trkpt lat="46.30595592" lon="6.98638000"><ele></ele><time>2014-4-1T3:57:26Z</time></trkpt>
<trkpt lat="46.30604594" lon="6.98649097"><ele></ele><time>2014-4-1T3:57:29Z</time></trkpt>
<trkpt lat="46.30613898" lon="6.98660698"><ele></ele><time>2014-4-1T3:57:32Z</time></trkpt>
<trkpt lat="46.30622800" lon="6.98672500"><ele></ele><time>2014-4-1T3:57:35Z</time></trkpt>
<trkpt lat="46.30630595" lon="6.98684494"><ele></ele><time>2014-4-1T3:57:38Z</time></trkpt>
<trkpt lat="46.30640695" lon="6.98701392"><ele></ele><time>2014-4-1T3:57:41Z</time></trkpt>
<trkpt lat="46.30644199" lon="6.98712800"><ele></ele><time>2014-4-1T3:57:44Z</time></trkpt>
<trkpt lat="46.30651994" lon="6.98725297"><ele></ele><time>2014-4-1T3:57:47Z</time></trkpt>
<trkpt lat="46.30658892" lon="6.98739094"><ele></ele><time>2014-4-1T3:57:50Z</time></trkpt>
<trkpt lat="46.30663795" lon="6.98751398"><ele></ele><time>2014-4-1T3:57:53Z</time></trkpt>
<trkpt lat="46.30668296" lon="6.98766293"><ele></ele><time>2014-4-1T3:57:56Z</time></trkpt>
<trkpt lat="46.30674792" lon="6.98782193"><ele></ele><time>2014-4-1T3:57:59Z</time></trkpt>
<trkpt lat="46.30680894" lon="6.98795596"><ele></ele><time>2014-4-1T3:58:2Z</time></trkpt>
<trkpt lat="46.30682395" lon="6.98803299"><ele></ele><time>2014-4-1T3:58:5Z</time></trkpt>
<trkpt lat="46.30684893" lon="6.98807892"><ele></ele><time>2014-4-1T3:58:8Z</time></trkpt>
<trkpt lat="46.30689000" lon="6.98825494"><ele></ele><time>2014-4-1T3:58:11Z</time></trkpt>
<trkpt lat="46.30690098" lon="6.98827900"><ele></ele><time>2014-4-1T3:58:14Z</time></trkpt>
<trkpt lat="46.30692897" lon="6.98838394"><ele></ele><time>2014-4-1T3:58:17Z</time></trkpt>
<trkpt lat="46.30700198" lon="6.98854898"><ele></ele><time>2014-4-1T3:58:20Z</time></trkpt>
<trkpt lat="46.30707893" lon="6.98874998"><ele></ele><time>2014-4-1T3:58:23Z</time></trkpt>
<trkpt lat="46.30712092" lon="6.98893195"><ele></ele><time>2014-4-1T3:58:26Z</time></trkpt>
<trkpt lat="46.30715596" lon="6.98910093"><ele></ele><time>2014-4-1T3:58:29Z</time></trkpt>
<trkpt lat="46.30719393" lon="6.98926697"><ele></ele><time>2014-4-1T3:58:32Z</time></trkpt>
<trkpt lat="46.30724095" lon="6.98947493"><ele></ele><time>2014-4-1T3:58:35Z</time></trkpt>
<trkpt lat="46.30727498" lon="6.98962195"><ele></ele><time>2014-4-1T3:58:38Z</time></trkpt>
<trkpt lat="46.30731496" lon="6.98976394"><ele></ele><time>2014-4-1T3:58:41Z</time></trkpt>
<trkpt lat="46.30733298" lon="6.98992998"><ele></ele><time>2014-4-1T3:58:44Z</time></trkpt>
<trkpt lat="46.30736693" lon="6.99007692"><ele></ele><time>2014-4-1T3:58:47Z</time></trkpt>
<trkpt lat="46.30740297" lon="6.99022897"><ele></ele><time>2014-4-1T3:58:50Z</time></trkpt>
<trkpt lat="46.30747396" lon="6.99045595"><ele></ele><time>2014-4-1T3:58:53Z</time></trkpt>
<trkpt lat="46.30751998" lon="6.99058495"><ele></ele><time>2014-4-1T3:58:56Z</time></trkpt>
<trkpt lat="46.30754597" lon="6.99076499"><ele></ele><time>2014-4-1T3:58:59Z</time></trkpt>
<trkpt lat="46.30756893" lon="6.99089793"><ele></ele><time>2014-4-1T3:59:2Z</time></trkpt>
<trkpt lat="46.30762098" lon="6.99105492"><ele></ele><time>2014-4-1T3:59:5Z</time></trkpt>
<trkpt lat="46.30768997" lon="6.99121895"><ele></ele><time>2014-4-1T3:59:8Z</time></trkpt>
<trkpt lat="46.30773699" lon="6.99142699"><ele></ele><time>2014-4-1T3:59:11Z</time></trkpt>
<trkpt lat="46.30777798" lon="6.99163696"><ele></ele><time>2014-4-1T3:59:14Z</time></trkpt>
<trkpt lat="46.30782693" lon="6.99177199"><ele></ele><time>2014-4-1T3:59:17Z</time></trkpt>
<trkpt lat="46.30786397" lon="6.99190794"><ele></ele><time>2014-4-1T3:59:20Z</time></trkpt>
<trkpt lat="46.30792994" lon="6.99207692"><ele></ele><time>2014-4-1T3:59:23Z</time></trkpt>
<trkpt lat="46.30798300" lon="6.99225496"><ele></ele><time>2014-4-1T3:59:26Z</time></trkpt>
<trkpt lat="46.30799892" lon="6.99233199"><ele></ele><time>2014-4-1T3:59:29Z</time></trkpt>
<trkpt lat="46.30804695" lon="6.99247599"><ele></ele><time>2014-4-1T3:59:32Z</time></trkpt>
<trkpt lat="46.30809397" lon="6.99264798"><ele></ele><time>2014-4-1T3:59:35Z</time></trkpt>
<trkpt lat="46.30816095" lon="6.99284496"><ele></ele><time>2014-4-1T3:59:38Z</time></trkpt>
<trkpt lat="46.30824292" lon="6.99302299"><ele></ele><time>2014-4-1T3:59:41Z</time></trkpt>
<trkpt lat="46.30833797" lon="6.99321896"><ele></ele><time>2014-4-1T3:59:44Z</time></trkpt>
<trkpt lat="46.30844199" lon="6.99338995"><ele></ele><time>2014-4-1T3:59:47Z</time></trkpt>
<trkpt lat="46.30855397" lon="6.99355599"><ele></ele><time>2014-4-1T3:59:50Z</time></trkpt>
<trkpt lat="46.30865598" lon="6.99372799"><ele></ele><time>2014-4-1T3:59:53Z</time></trkpt>
<trkpt lat="46.30872798" lon="6.99383000"><ele></ele><time>2014-4-1T3:59:56Z</time></trkpt>
<trkpt lat="46.30880493" lon="6.99395598"><ele></ele><time>2014-4-1T3:59:59Z</time></trkpt>
<trkpt lat="46.30889595" lon="6.99404994"><ele></ele><time>2014-4-1T4:0:2Z</time></trkpt>
<trkpt lat="46.30902395" lon="6.99417894"><ele></ele><time>2014-4-1T4:0:5Z</time></trkpt>
<trkpt lat="46.30915395" lon="6.99432394"><ele></ele><time>2014-4-1T4:0:8Z</time></trkpt>
<trkpt lat="46.30929292" lon="6.99445697"><ele></ele><time>2014-4-1T4:0:11Z</time></trkpt>
<trkpt lat="46.30942695" lon="6.99463299"><ele></ele><time>2014-4-1T4:0:14Z</time></trkpt>
<trkpt lat="46.30954195" lon="6.99476198"><ele></ele><time>2014-4-1T4:0:17Z</time></trkpt>
<trkpt lat="46.30968092" lon="6.99479995"><ele></ele><time>2014-4-1T4:0:20Z</time></trkpt>
<trkpt lat="46.30986096" lon="6.99489098"><ele></ele><time>2014-4-1T4:0:23Z</time></trkpt>
<trkpt lat="46.30997697" lon="6.99495493"><ele></ele><time>2014-4-1T4:0:26Z</time></trkpt>
<trkpt lat="46.31010295" lon="6.99500598"><ele></ele><time>2014-4-1T4:0:29Z</time></trkpt>
<trkpt lat="46.31023899" lon="6.99505795"><ele></ele><time>2014-4-1T4:0:32Z</time></trkpt>
<trkpt lat="46.31038098" lon="6.99509399"><ele></ele><time>2014-4-1T4:0:35Z</time></trkpt>
<trkpt lat="46.31050000" lon="6.99513498"><ele></ele><time>2014-4-1T4:0:38Z</time></trkpt>
<trkpt lat="46.31060092" lon="6.99520195"><ele></ele><time>2014-4-1T4:0:41Z</time></trkpt>
<trkpt lat="46.31070393" lon="6.99529599"><ele></ele><time>2014-4-1T4:0:44Z</time></trkpt>
<trkpt lat="46.31078096" lon="6.99546900"><ele></ele><time>2014-4-1T4:0:47Z</time></trkpt>
<trkpt lat="46.31083695" lon="6.99562398"><ele></ele><time>2014-4-1T4:0:50Z</time></trkpt>
<trkpt lat="46.31090200" lon="6.99577393"><ele></ele><time>2014-4-1T4:0:53Z</time></trkpt>
<trkpt lat="46.31096494" lon="6.99590293"><ele></ele><time>2014-4-1T4:0:56Z</time></trkpt>
<trkpt lat="46.31103200" lon="6.99606797"><ele></ele><time>2014-4-1T4:0:59Z</time></trkpt>
<trkpt lat="46.31114197" lon="6.99628095"><ele></ele><time>2014-4-1T4:1:2Z</time></trkpt>
<trkpt lat="46.31127298" lon="6.99644096"><ele></ele><time>2014-4-1T4:1:5Z</time></trkpt>
<trkpt lat="46.31139292" lon="6.99654096"><ele></ele><time>2014-4-1T4:1:8Z</time></trkpt>
<trkpt lat="46.31148496" lon="6.99666392"><ele></ele><time>2014-4-1T4:1:11Z</time></trkpt>
<trkpt lat="46.31151195" lon="6.99684095"><ele></ele><time>2014-4-1T4:1:14Z</time></trkpt>
<trkpt lat="46.31147498" lon="6.99703700"><ele></ele><time>2014-4-1T4:1:17Z</time></trkpt>
<trkpt lat="46.31140600" lon="6.99721796"><ele></ele><time>2014-4-1T4:1:20Z</time></trkpt>
<trkpt lat="46.31129595" lon="6.99731000"><ele></ele><time>2014-4-1T4:1:23Z</time></trkpt>
<trkpt lat="46.31115194" lon="6.99733699"><ele></ele><time>2014-4-1T4:1:26Z</time></trkpt>
<trkpt lat="46.31103795" lon="6.99741494"><ele></ele><time>2014-4-1T4:1:29Z</time></trkpt>
<trkpt lat="46.31088599" lon="6.99761996"><ele></ele><time>2014-4-1T4:1:32Z</time></trkpt>
<trkpt lat="46.31079898" lon="6.99784795"><ele></ele><time>2014-4-1T4:1:35Z</time></trkpt>
<trkpt lat="46.31078700" lon="6.99806998"><ele></ele><time>2014-4-1T4:1:38Z</time></trkpt>
<trkpt lat="46.31087492" lon="6.99828892"><ele></ele><time>2014-4-1T4:1:41Z</time></trkpt>
<trkpt lat="46.31096595" lon="6.99854298"><ele></ele><time>2014-4-1T4:1:44Z</time></trkpt>
<trkpt lat="46.31104792" lon="6.99888999"><ele></ele><time>2014-4-1T4:1:47Z</time></trkpt>
<trkpt lat="46.31108095" lon="6.99913499"><ele></ele><time>2014-4-1T4:1:50Z</time></trkpt>
<trkpt lat="46.31119394" lon="6.99942794"><ele></ele><time>2014-4-1T4:1:53Z</time></trkpt>
<trkpt lat="46.31130097" lon="6.99976900"><ele></ele><time>2014-4-1T4:1:56Z</time></trkpt>
<trkpt lat="46.31143492" lon="7.00022598"><ele></ele><time>2014-4-1T4:1:59Z</time></trkpt>
<trkpt lat="46.31153692" lon="7.00045992"><ele></ele><time>2014-4-1T4:2:2Z</time></trkpt>
<trkpt lat="46.31159795" lon="7.00060794"><ele></ele><time>2014-4-1T4:2:5Z</time></trkpt>
<trkpt lat="46.31175997" lon="7.00090399"><ele></ele><time>2014-4-1T4:2:8Z</time></trkpt>
<trkpt lat="46.31179995" lon="7.00100994"><ele></ele><time>2014-4-1T4:2:11Z</time></trkpt>
<trkpt lat="46.31190397" lon="7.00135393"><ele></ele><time>2014-4-1T4:2:14Z</time></trkpt>
<trkpt lat="46.31189995" lon="7.00171192"><ele></ele><time>2014-4-1T4:2:17Z</time></trkpt>
<trkpt lat="46.31186692" lon="7.00192298"><ele></ele><time>2014-4-1T4:2:20Z</time></trkpt>
<trkpt lat="46.31184999" lon="7.00220394"><ele></ele><time>2014-4-1T4:2:23Z</time></trkpt>
<trkpt lat="46.31184295" lon="7.00266897"><ele></ele><time>2014-4-1T4:2:26Z</time></trkpt>
<trkpt lat="46.31188494" lon="7.00298497"><ele></ele><time>2014-4-1T4:2:29Z</time></trkpt>
<trkpt lat="46.31190900" lon="7.00329593"><ele></ele><time>2014-4-1T4:2:32Z</time></trkpt>
<trkpt lat="46.31186499" lon="7.00361797"><ele></ele><time>2014-4-1T4:2:35Z</time></trkpt>
<trkpt lat="46.31183297" lon="7.00382793"><ele></ele><time>2014-4-1T4:2:38Z</time></trkpt>
<trkpt lat="46.31177992" lon="7.00414494"><ele></ele><time>2014-4-1T4:2:41Z</time></trkpt>
<trkpt lat="46.31167598" lon="7.00446798"><ele></ele><time>2014-4-1T4:2:44Z</time></trkpt>
<trkpt lat="46.31151094" lon="7.00479797"><ele></ele><time>2014-4-1T4:2:47Z</time></trkpt>
<trkpt lat="46.31136694" lon="7.00513098"><ele></ele><time>2014-4-1T4:2:50Z</time></trkpt>
<trkpt lat="46.31118497" lon="7.00547699"><ele></ele><time>2014-4-1T4:2:53Z</time></trkpt>
<trkpt lat="46.31115798" lon="7.00552292"><ele></ele><time>2014-4-1T4:2:56Z</time></trkpt>
<trkpt lat="46.31090795" lon="7.00601896"><ele></ele><time>2014-4-1T4:2:59Z</time></trkpt>
<trkpt lat="46.31074492" lon="7.00642297"><ele></ele><time>2014-4-1T4:3:2Z</time></trkpt>
<trkpt lat="46.31061793" lon="7.00660896"><ele></ele><time>2014-4-1T4:3:5Z</time></trkpt>
<trkpt lat="46.31045097" lon="7.00663797"><ele></ele><time>2014-4-1T4:3:8Z</time></trkpt>
<trkpt lat="46.31026598" lon="7.00674693"><ele></ele><time>2014-4-1T4:3:11Z</time></trkpt>
<trkpt lat="46.31021895" lon="7.00683997"><ele></ele><time>2014-4-1T4:3:14Z</time></trkpt>
<trkpt lat="46.31027997" lon="7.00693795"><ele></ele><time>2014-4-1T4:3:17Z</time></trkpt>
<trkpt lat="46.31050000" lon="7.00694399"><ele></ele><time>2014-4-1T4:3:20Z</time></trkpt>
<trkpt lat="46.31068298" lon="7.00706092"><ele></ele><time>2014-4-1T4:3:23Z</time></trkpt>
<trkpt lat="46.31087693" lon="7.00728698"><ele></ele><time>2014-4-1T4:3:26Z</time></trkpt>
<trkpt lat="46.31100593" lon="7.00741296"><ele></ele><time>2014-4-1T4:3:29Z</time></trkpt>
<trkpt lat="46.31118195" lon="7.00756492"><ele></ele><time>2014-4-1T4:3:32Z</time></trkpt>
<trkpt lat="46.31134699" lon="7.00778998"><ele></ele><time>2014-4-1T4:3:35Z</time></trkpt>
<trkpt lat="46.31149200" lon="7.00813095"><ele></ele><time>2014-4-1T4:3:38Z</time></trkpt>
<trkpt lat="46.31156199" lon="7.00848894"><ele></ele><time>2014-4-1T4:3:41Z</time></trkpt>
<trkpt lat="46.31156492" lon="7.00883796"><ele></ele><time>2014-4-1T4:3:44Z</time></trkpt>
<trkpt lat="46.31149393" lon="7.00929394"><ele></ele><time>2014-4-1T4:3:47Z</time></trkpt>
<trkpt lat="46.31134992" lon="7.00986098"><ele></ele><time>2014-4-1T4:3:50Z</time></trkpt>
<trkpt lat="46.31123099" lon="7.01033296"><ele></ele><time>2014-4-1T4:3:53Z</time></trkpt>
<trkpt lat="46.31111599" lon="7.01076597"><ele></ele><time>2014-4-1T4:3:56Z</time></trkpt>
<trkpt lat="46.31108196" lon="7.01088499"><ele></ele><time>2014-4-1T4:3:59Z</time></trkpt>
<trkpt lat="46.31102093" lon="7.01106998"><ele></ele><time>2014-4-1T4:4:2Z</time></trkpt>
<trkpt lat="46.31100995" lon="7.01111097"><ele></ele><time>2014-4-1T4:4:5Z</time></trkpt>
<trkpt lat="46.31092295" lon="7.01144499"><ele></ele><time>2014-4-1T4:4:8Z</time></trkpt>
<trkpt lat="46.31083092" lon="7.01176694"><ele></ele><time>2014-4-1T4:4:11Z</time></trkpt>
<trkpt lat="46.31077392" lon="7.01213599"><ele></ele><time>2014-4-1T4:4:14Z</time></trkpt>
<trkpt lat="46.31073394" lon="7.01237597"><ele></ele><time>2014-4-1T4:4:17Z</time></trkpt>
<trkpt lat="46.31069295" lon="7.01265592"><ele></ele><time>2014-4-1T4:4:20Z</time></trkpt>
<trkpt lat="46.31065699" lon="7.01293093"><ele></ele><time>2014-4-1T4:4:23Z</time></trkpt>
<trkpt lat="46.31064593" lon="7.01320292"><ele></ele><time>2014-4-1T4:4:26Z</time></trkpt>
<trkpt lat="46.31069195" lon="7.01349093"><ele></ele><time>2014-4-1T4:4:29Z</time></trkpt>
<trkpt lat="46.31077593" lon="7.01371095"><ele></ele><time>2014-4-1T4:4:32Z</time></trkpt>
<trkpt lat="46.31084894" lon="7.01387297"><ele></ele><time>2014-4-1T4:4:35Z</time></trkpt>
<trkpt lat="46.31100593" lon="7.01398093"><ele></ele><time>2014-4-1T4:4:38Z</time></trkpt>
<trkpt lat="46.31125093" lon="7.01413692"><ele></ele><time>2014-4-1T4:4:41Z</time></trkpt>
<trkpt lat="46.31126393" lon="7.01417799"><ele></ele><time>2014-4-1T4:4:44Z</time></trkpt>
<trkpt lat="46.31120198" lon="7.01434596"><ele></ele><time>2014-4-1T4:4:47Z</time></trkpt>
<trkpt lat="46.31106192" lon="7.01433700"><ele></ele><time>2014-4-1T4:4:50Z</time></trkpt>
<trkpt lat="46.31083997" lon="7.01430196"><ele></ele><time>2014-4-1T4:4:53Z</time></trkpt>
<trkpt lat="46.31067292" lon="7.01432099"><ele></ele><time>2014-4-1T4:4:56Z</time></trkpt>
<trkpt lat="46.31056094" lon="7.01445292"><ele></ele><time>2014-4-1T4:4:59Z</time></trkpt>
<trkpt lat="46.31045692" lon="7.01477193"><ele></ele><time>2014-4-1T4:5:2Z</time></trkpt>
<trkpt lat="46.31037595" lon="7.01508299"><ele></ele><time>2014-4-1T4:5:5Z</time></trkpt>
<trkpt lat="46.31036396" lon="7.01550392"><ele></ele><time>2014-4-1T4:5:8Z</time></trkpt>
<trkpt lat="46.31028894" lon="7.01596292"><ele></ele><time>2014-4-1T4:5:11Z</time></trkpt>
<trkpt lat="46.31018300" lon="7.01643599"><ele></ele><time>2014-4-1T4:5:14Z</time></trkpt>
<trkpt lat="46.31015995" lon="7.01661495"><ele></ele><time>2014-4-1T4:5:17Z</time></trkpt>
<trkpt lat="46.31007194" lon="7.01730494"><ele></ele><time>2014-4-1T4:5:20Z</time></trkpt>
<trkpt lat="46.30991695" lon="7.01771499"><ele></ele><time>2014-4-1T4:5:23Z</time></trkpt>
<trkpt lat="46.30968997" lon="7.01811497"><ele></ele><time>2014-4-1T4:5:26Z</time></trkpt>
<trkpt lat="46.30945796" lon="7.01849693"><ele></ele><time>2014-4-1T4:5:29Z</time></trkpt>
<trkpt lat="46.30927792" lon="7.01863096"><ele></ele><time>2014-4-1T4:5:32Z</time></trkpt>
<trkpt lat="46.30905295" lon="7.01875795"><ele></ele><time>2014-4-1T4:5:35Z</time></trkpt>
<trkpt lat="46.30890199" lon="7.01884596"><ele></ele><time>2014-4-1T4:5:38Z</time></trkpt>
<trkpt lat="46.30882697" lon="7.01892894"><ele></ele><time>2014-4-1T4:5:41Z</time></trkpt>
<trkpt lat="46.30881398" lon="7.01897194"><ele></ele><time>2014-4-1T4:5:44Z</time></trkpt>
<trkpt lat="46.30888296" lon="7.01914293"><ele></ele><time>2014-4-1T4:5:47Z</time></trkpt>
<trkpt lat="46.30905597" lon="7.01927897"><ele></ele><time>2014-4-1T4:5:50Z</time></trkpt>
<trkpt lat="46.30916795" lon="7.01938994"><ele></ele><time>2014-4-1T4:5:53Z</time></trkpt>
<trkpt lat="46.30936199" lon="7.01956596"><ele></ele><time>2014-4-1T4:5:56Z</time></trkpt>
<trkpt lat="46.30949493" lon="7.01959496"><ele></ele><time>2014-4-1T4:5:59Z</time></trkpt>
<trkpt lat="46.30963499" lon="7.01958499"><ele></ele><time>2014-4-1T4:6:2Z</time></trkpt>
<trkpt lat="46.30975896" lon="7.01953193"><ele></ele><time>2014-4-1T4:6:5Z</time></trkpt>
<trkpt lat="46.30984495" lon="7.01942892"><ele></ele><time>2014-4-1T4:6:8Z</time></trkpt>
<trkpt lat="46.30989298" lon="7.01927000"><ele></ele><time>2014-4-1T4:6:11Z</time></trkpt>
<trkpt lat="46.30994797" lon="7.01905492"><ele></ele><time>2014-4-1T4:6:14Z</time></trkpt>
<trkpt lat="46.31003992" lon="7.01890396"><ele></ele><time>2014-4-1T4:6:17Z</time></trkpt>
<trkpt lat="46.31020697" lon="7.01877295"><ele></ele><time>2014-4-1T4:6:20Z</time></trkpt>
<trkpt lat="46.31031199" lon="7.01868896"><ele></ele><time>2014-4-1T4:6:23Z</time></trkpt>
<trkpt lat="46.31045993" lon="7.01857296"><ele></ele><time>2014-4-1T4:6:26Z</time></trkpt>
<trkpt lat="46.31057192" lon="7.01842099"><ele></ele><time>2014-4-1T4:6:29Z</time></trkpt>
<trkpt lat="46.31060997" lon="7.01830398"><ele></ele><time>2014-4-1T4:6:32Z</time></trkpt>
<trkpt lat="46.31067200" lon="7.01811799"><ele></ele><time>2014-4-1T4:6:35Z</time></trkpt>
<trkpt lat="46.31076596" lon="7.01797198"><ele></ele><time>2014-4-1T4:6:38Z</time></trkpt>
<trkpt lat="46.31089294" lon="7.01779797"><ele></ele><time>2014-4-1T4:6:41Z</time></trkpt>
<trkpt lat="46.31101993" lon="7.01768297"><ele></ele><time>2014-4-1T4:6:44Z</time></trkpt>
<trkpt lat="46.31111800" lon="7.01751893"><ele></ele><time>2014-4-1T4:6:47Z</time></trkpt>
<trkpt lat="46.31119394" lon="7.01734300"><ele></ele><time>2014-4-1T4:6:50Z</time></trkpt>
<trkpt lat="46.31126795" lon="7.01721693"><ele></ele><time>2014-4-1T4:6:53Z</time></trkpt>
<trkpt lat="46.31134196" lon="7.01715197"><ele></ele><time>2014-4-1T4:6:56Z</time></trkpt>
<trkpt lat="46.31143400" lon="7.01715097"><ele></ele><time>2014-4-1T4:6:59Z</time></trkpt>
<trkpt lat="46.31152695" lon="7.01715600"><ele></ele><time>2014-4-1T4:7:2Z</time></trkpt>
<trkpt lat="46.31163600" lon="7.01716195"><ele></ele><time>2014-4-1T4:7:5Z</time></trkpt>
<trkpt lat="46.31174295" lon="7.01713094"><ele></ele><time>2014-4-1T4:7:8Z</time></trkpt>
<trkpt lat="46.31185695" lon="7.01703094"><ele></ele><time>2014-4-1T4:7:11Z</time></trkpt>
<trkpt lat="46.31195795" lon="7.01694796"><ele></ele><time>2014-4-1T4:7:14Z</time></trkpt>
<trkpt lat="46.31204998" lon="7.01688493"><ele></ele><time>2014-4-1T4:7:17Z</time></trkpt>
<trkpt lat="46.31215492" lon="7.01684394"><ele></ele><time>2014-4-1T4:7:20Z</time></trkpt>
<trkpt lat="46.31224092" lon="7.01680295"><ele></ele><time>2014-4-1T4:7:23Z</time></trkpt>
<trkpt lat="46.31237394" lon="7.01677797"><ele></ele><time>2014-4-1T4:7:26Z</time></trkpt>
<trkpt lat="46.31251895" lon="7.01675300"><ele></ele><time>2014-4-1T4:7:29Z</time></trkpt>
<trkpt lat="46.31269698" lon="7.01674394"><ele></ele><time>2014-4-1T4:7:32Z</time></trkpt>
<trkpt lat="46.31285196" lon="7.01676699"><ele></ele><time>2014-4-1T4:7:35Z</time></trkpt>
<trkpt lat="46.31300694" lon="7.01680195"><ele></ele><time>2014-4-1T4:7:38Z</time></trkpt>
<trkpt lat="46.31313192" lon="7.01684897"><ele></ele><time>2014-4-1T4:7:41Z</time></trkpt>
<trkpt lat="46.31326594" lon="7.01691099"><ele></ele><time>2014-4-1T4:7:44Z</time></trkpt>
<trkpt lat="46.31343300" lon="7.01697193"><ele></ele><time>2014-4-1T4:7:47Z</time></trkpt>
<trkpt lat="46.31360994" lon="7.01700697"><ele></ele><time>2014-4-1T4:7:50Z</time></trkpt>
<trkpt lat="46.31375193" lon="7.01704594"><ele></ele><time>2014-4-1T4:7:53Z</time></trkpt>
<trkpt lat="46.31387497" lon="7.01708098"><ele></ele><time>2014-4-1T4:7:56Z</time></trkpt>
<trkpt lat="46.31407899" lon="7.01713898"><ele></ele><time>2014-4-1T4:7:59Z</time></trkpt>
<trkpt lat="46.31422098" lon="7.01719598"><ele></ele><time>2014-4-1T4:8:2Z</time></trkpt>
<trkpt lat="46.31444293" lon="7.01733998"><ele></ele><time>2014-4-1T4:8:5Z</time></trkpt>
<trkpt lat="46.31464292" lon="7.01755196"><ele></ele><time>2014-4-1T4:8:8Z</time></trkpt>
<trkpt lat="46.31484895" lon="7.01765195"><ele></ele><time>2014-4-1T4:8:11Z</time></trkpt>
<trkpt lat="46.31508197" lon="7.01777693"><ele></ele><time>2014-4-1T4:8:14Z</time></trkpt>
<trkpt lat="46.31526293" lon="7.01782999"><ele></ele><time>2014-4-1T4:8:17Z</time></trkpt>
<trkpt lat="46.31544298" lon="7.01800693"><ele></ele><time>2014-4-1T4:8:20Z</time></trkpt>
<trkpt lat="46.31556594" lon="7.01825394"><ele></ele><time>2014-4-1T4:8:23Z</time></trkpt>
<trkpt lat="46.31571396" lon="7.01861395"><ele></ele><time>2014-4-1T4:8:26Z</time></trkpt>
<trkpt lat="46.31583500" lon="7.01886700"><ele></ele><time>2014-4-1T4:8:29Z</time></trkpt>
<trkpt lat="46.31597992" lon="7.01910798"><ele></ele><time>2014-4-1T4:8:32Z</time></trkpt>
<trkpt lat="46.31610699" lon="7.01935298"><ele></ele><time>2014-4-1T4:8:35Z</time></trkpt>
<trkpt lat="46.31617698" lon="7.01950796"><ele></ele><time>2014-4-1T4:8:38Z</time></trkpt>
<trkpt lat="46.31624697" lon="7.01963394"><ele></ele><time>2014-4-1T4:8:41Z</time></trkpt>
<trkpt lat="46.31627999" lon="7.01972296"><ele></ele><time>2014-4-1T4:8:44Z</time></trkpt>
<trkpt lat="46.31625795" lon="7.01984198"><ele></ele><time>2014-4-1T4:8:47Z</time></trkpt>
<trkpt lat="46.31633992" lon="7.02005899"><ele></ele><time>2014-4-1T4:8:50Z</time></trkpt>
<trkpt lat="46.31639600" lon="7.02017399"><ele></ele><time>2014-4-1T4:8:53Z</time></trkpt>
<trkpt lat="46.31644998" lon="7.02032997"><ele></ele><time>2014-4-1T4:8:56Z</time></trkpt>
<trkpt lat="46.31650597" lon="7.02047196"><ele></ele><time>2014-4-1T4:8:59Z</time></trkpt>
<trkpt lat="46.31654000" lon="7.02059794"><ele></ele><time>2014-4-1T4:9:2Z</time></trkpt>
<trkpt lat="46.31662298" lon="7.02077597"><ele></ele><time>2014-4-1T4:9:5Z</time></trkpt>
<trkpt lat="46.31668199" lon="7.02096993"><ele></ele><time>2014-4-1T4:9:8Z</time></trkpt>
<trkpt lat="46.31671795" lon="7.02105492"><ele></ele><time>2014-4-1T4:9:11Z</time></trkpt>
<trkpt lat="46.31677595" lon="7.02118493"><ele></ele><time>2014-4-1T4:9:14Z</time></trkpt>
<trkpt lat="46.31683395" lon="7.02134896"><ele></ele><time>2014-4-1T4:9:17Z</time></trkpt>
<trkpt lat="46.31686295" lon="7.02153998"><ele></ele><time>2014-4-1T4:9:20Z</time></trkpt>
<trkpt lat="46.31690394" lon="7.02168692"><ele></ele><time>2014-4-1T4:9:23Z</time></trkpt>
<trkpt lat="46.31695499" lon="7.02185296"><ele></ele><time>2014-4-1T4:9:26Z</time></trkpt>
<trkpt lat="46.31704492" lon="7.02195799"><ele></ele><time>2014-4-1T4:9:29Z</time></trkpt>
<trkpt lat="46.31707896" lon="7.02202999"><ele></ele><time>2014-4-1T4:9:32Z</time></trkpt>
<trkpt lat="46.31715096" lon="7.02217500"><ele></ele><time>2014-4-1T4:9:35Z</time></trkpt>
<trkpt lat="46.31719396" lon="7.02229293"><ele></ele><time>2014-4-1T4:9:38Z</time></trkpt>
<trkpt lat="46.31728096" lon="7.02243794"><ele></ele><time>2014-4-1T4:9:41Z</time></trkpt>
<trkpt lat="46.31734793" lon="7.02254992"><ele></ele><time>2014-4-1T4:9:44Z</time></trkpt>
<trkpt lat="46.31736595" lon="7.02257800"><ele></ele><time>2014-4-1T4:9:47Z</time></trkpt>
<trkpt lat="46.31740593" lon="7.02263994"><ele></ele><time>2014-4-1T4:9:50Z</time></trkpt>
<trkpt lat="46.31749193" lon="7.02278897"><ele></ele><time>2014-4-1T4:9:53Z</time></trkpt>
<trkpt lat="46.31757097" lon="7.02295996"><ele></ele><time>2014-4-1T4:9:56Z</time></trkpt>
<trkpt lat="46.31763694" lon="7.02310497"><ele></ele><time>2014-4-1T4:9:59Z</time></trkpt>
<trkpt lat="46.31769695" lon="7.02325098"><ele></ele><time>2014-4-1T4:10:2Z</time></trkpt>
<trkpt lat="46.31776292" lon="7.02338199"><ele></ele><time>2014-4-1T4:10:5Z</time></trkpt>
<trkpt lat="46.31787197" lon="7.02354996"><ele></ele><time>2014-4-1T4:10:8Z</time></trkpt>
<trkpt lat="46.31801295" lon="7.02375197"><ele></ele><time>2014-4-1T4:10:11Z</time></trkpt>
<trkpt lat="46.31814597" lon="7.02394098"><ele></ele><time>2014-4-1T4:10:14Z</time></trkpt>
<trkpt lat="46.31823993" lon="7.02406193"><ele></ele><time>2014-4-1T4:10:17Z</time></trkpt>
<trkpt lat="46.31834697" lon="7.02431196"><ele></ele><time>2014-4-1T4:10:20Z</time></trkpt>
<trkpt lat="46.31841495" lon="7.02453199"><ele></ele><time>2014-4-1T4:10:23Z</time></trkpt>
<trkpt lat="46.31844998" lon="7.02470792"><ele></ele><time>2014-4-1T4:10:26Z</time></trkpt>
<trkpt lat="46.31851695" lon="7.02487992"><ele></ele><time>2014-4-1T4:10:29Z</time></trkpt>
<trkpt lat="46.31860094" lon="7.02508000"><ele></ele><time>2014-4-1T4:10:32Z</time></trkpt>
<trkpt lat="46.31872692" lon="7.02523892"><ele></ele><time>2014-4-1T4:10:35Z</time></trkpt>
<trkpt lat="46.31884494" lon="7.02533095"><ele></ele><time>2014-4-1T4:10:38Z</time></trkpt>
<trkpt lat="46.31896396" lon="7.02544696"><ele></ele><time>2014-4-1T4:10:41Z</time></trkpt>
<trkpt lat="46.31901794" lon="7.02547696"><ele></ele><time>2014-4-1T4:10:44Z</time></trkpt>
<trkpt lat="46.31911894" lon="7.02553396"><ele></ele><time>2014-4-1T4:10:47Z</time></trkpt>
<trkpt lat="46.31923696" lon="7.02558098"><ele></ele><time>2014-4-1T4:10:50Z</time></trkpt>
<trkpt lat="46.31937300" lon="7.02557998"><ele></ele><time>2014-4-1T4:10:53Z</time></trkpt>
<trkpt lat="46.31953494" lon="7.02557998"><ele></ele><time>2014-4-1T4:10:56Z</time></trkpt>
<trkpt lat="46.31964399" lon="7.02564293"><ele></ele><time>2014-4-1T4:10:59Z</time></trkpt>
<trkpt lat="46.31978396" lon="7.02571694"><ele></ele><time>2014-4-1T4:11:2Z</time></trkpt>
<trkpt lat="46.31989393" lon="7.02578994"><ele></ele><time>2014-4-1T4:11:5Z</time></trkpt>
<trkpt lat="46.32001698" lon="7.02593797"><ele></ele><time>2014-4-1T4:11:8Z</time></trkpt>
<trkpt lat="46.32007792" lon="7.02602799"><ele></ele><time>2014-4-1T4:11:11Z</time></trkpt>
<trkpt lat="46.32014799" lon="7.02612899"><ele></ele><time>2014-4-1T4:11:14Z</time></trkpt>
<trkpt lat="46.32026098" lon="7.02629093"><ele></ele><time>2014-4-1T4:11:17Z</time></trkpt>
<trkpt lat="46.32034094" lon="7.02642999"><ele></ele><time>2014-4-1T4:11:20Z</time></trkpt>
<trkpt lat="46.32041696" lon="7.02652898"><ele></ele><time>2014-4-1T4:11:23Z</time></trkpt>
<trkpt lat="46.32052098" lon="7.02660098"><ele></ele><time>2014-4-1T4:11:26Z</time></trkpt>
<trkpt lat="46.32059692" lon="7.02662797"><ele></ele><time>2014-4-1T4:11:29Z</time></trkpt>
<trkpt lat="46.32071997" lon="7.02661095"><ele></ele><time>2014-4-1T4:11:32Z</time></trkpt>
<trkpt lat="46.32089498" lon="7.02654197"><ele></ele><time>2014-4-1T4:11:35Z</time></trkpt>
<trkpt lat="46.32103697" lon="7.02645094"><ele></ele><time>2014-4-1T4:11:38Z</time></trkpt>
<trkpt lat="46.32124895" lon="7.02641398"><ele></ele><time>2014-4-1T4:11:41Z</time></trkpt>
<trkpt lat="46.32141793" lon="7.02647198"><ele></ele><time>2014-4-1T4:11:44Z</time></trkpt>
<trkpt lat="46.32154400" lon="7.02662596"><ele></ele><time>2014-4-1T4:11:47Z</time></trkpt>
<trkpt lat="46.32166696" lon="7.02682000"><ele></ele><time>2014-4-1T4:11:50Z</time></trkpt>
<trkpt lat="46.32179394" lon="7.02702493"><ele></ele><time>2014-4-1T4:11:53Z</time></trkpt>
<trkpt lat="46.32193099" lon="7.02726793"><ele></ele><time>2014-4-1T4:11:56Z</time></trkpt>
<trkpt lat="46.32206996" lon="7.02760194"><ele></ele><time>2014-4-1T4:11:59Z</time></trkpt>
<trkpt lat="46.32218194" lon="7.02796999"><ele></ele><time>2014-4-1T4:12:2Z</time></trkpt>
<trkpt lat="46.32225998" lon="7.02824593"><ele></ele><time>2014-4-1T4:12:5Z</time></trkpt>
<trkpt lat="46.32231697" lon="7.02848992"><ele></ele><time>2014-4-1T4:12:8Z</time></trkpt>
<trkpt lat="46.32239794" lon="7.02872395"><ele></ele><time>2014-4-1T4:12:11Z</time></trkpt>
<trkpt lat="46.32247900" lon="7.02895998"><ele></ele><time>2014-4-1T4:12:14Z</time></trkpt>
<trkpt lat="46.32253792" lon="7.02919300"><ele></ele><time>2014-4-1T4:12:17Z</time></trkpt>
<trkpt lat="46.32256399" lon="7.02944596"><ele></ele><time>2014-4-1T4:12:20Z</time></trkpt>
<trkpt lat="46.32258293" lon="7.02963296"><ele></ele><time>2014-4-1T4:12:23Z</time></trkpt>
<trkpt lat="46.32261294" lon="7.02978794"><ele></ele><time>2014-4-1T4:12:26Z</time></trkpt>
<trkpt lat="46.32263498" lon="7.02995994"><ele></ele><time>2014-4-1T4:12:29Z</time></trkpt>
<trkpt lat="46.32270698" lon="7.03012993"><ele></ele><time>2014-4-1T4:12:32Z</time></trkpt>
<trkpt lat="46.32274093" lon="7.03037099"><ele></ele><time>2014-4-1T4:12:35Z</time></trkpt>
<trkpt lat="46.32275694" lon="7.03052497"><ele></ele><time>2014-4-1T4:12:38Z</time></trkpt>
<trkpt lat="46.32278494" lon="7.03078992"><ele></ele><time>2014-4-1T4:12:41Z</time></trkpt>
<trkpt lat="46.32283699" lon="7.03109393"><ele></ele><time>2014-4-1T4:12:44Z</time></trkpt>
<trkpt lat="46.32288795" lon="7.03128998"><ele></ele><time>2014-4-1T4:12:47Z</time></trkpt>
<trkpt lat="46.32291595" lon="7.03143993"><ele></ele><time>2014-4-1T4:12:50Z</time></trkpt>
<trkpt lat="46.32295894" lon="7.03164194"><ele></ele><time>2014-4-1T4:12:53Z</time></trkpt>
<trkpt lat="46.32298996" lon="7.03179994"><ele></ele><time>2014-4-1T4:12:56Z</time></trkpt>
<trkpt lat="46.32305198" lon="7.03196397"><ele></ele><time>2014-4-1T4:12:59Z</time></trkpt>
<trkpt lat="46.32311594" lon="7.03205198"><ele></ele><time>2014-4-1T4:13:2Z</time></trkpt>
<trkpt lat="46.32321099" lon="7.03221895"><ele></ele><time>2014-4-1T4:13:5Z</time></trkpt>
<trkpt lat="46.32328198" lon="7.03233898"><ele></ele><time>2014-4-1T4:13:8Z</time></trkpt>
<trkpt lat="46.32334292" lon="7.03245196"><ele></ele><time>2014-4-1T4:13:11Z</time></trkpt>
<trkpt lat="46.32340394" lon="7.03254794"><ele></ele><time>2014-4-1T4:13:14Z</time></trkpt>
<trkpt lat="46.32344199" lon="7.03271792"><ele></ele><time>2014-4-1T4:13:17Z</time></trkpt>
<trkpt lat="46.32342196" lon="7.03281993"><ele></ele><time>2014-4-1T4:13:20Z</time></trkpt>
<trkpt lat="46.32331895" lon="7.03288699"><ele></ele><time>2014-4-1T4:13:23Z</time></trkpt>
<trkpt lat="46.32317696" lon="7.03283695"><ele></ele><time>2014-4-1T4:13:26Z</time></trkpt>
<trkpt lat="46.32309297" lon="7.03275195"><ele></ele><time>2014-4-1T4:13:29Z</time></trkpt>
<trkpt lat="46.32303497" lon="7.03259697"><ele></ele><time>2014-4-1T4:13:32Z</time></trkpt>
<trkpt lat="46.32293497" lon="7.03251994"><ele></ele><time>2014-4-1T4:13:35Z</time></trkpt>
<trkpt lat="46.32284897" lon="7.03246596"><ele></ele><time>2014-4-1T4:13:38Z</time></trkpt>
<trkpt lat="46.32268595" lon="7.03242095"><ele></ele><time>2014-4-1T4:13:41Z</time></trkpt>
<trkpt lat="46.32262199" lon="7.03238399"><ele></ele><time>2014-4-1T4:13:44Z</time></trkpt>
<trkpt lat="46.32250892" lon="7.03231894"><ele></ele><time>2014-4-1T4:13:47Z</time></trkpt>
<trkpt lat="46.32242099" lon="7.03213999"><ele></ele><time>2014-4-1T4:13:50Z</time></trkpt>
<trkpt lat="46.32232293" lon="7.03199700"><ele></ele><time>2014-4-1T4:13:53Z</time></trkpt>
<trkpt lat="46.32226098" lon="7.03186699"><ele></ele><time>2014-4-1T4:13:56Z</time></trkpt>
<trkpt lat="46.32222695" lon="7.03184495"><ele></ele><time>2014-4-1T4:13:59Z</time></trkpt>
<trkpt lat="46.32220097" lon="7.03174093"><ele></ele><time>2014-4-1T4:14:2Z</time></trkpt>
<trkpt lat="46.32214095" lon="7.03159098"><ele></ele><time>2014-4-1T4:14:5Z</time></trkpt>
<trkpt lat="46.32204096" lon="7.03144597"><ele></ele><time>2014-4-1T4:14:8Z</time></trkpt>
<trkpt lat="46.32194599" lon="7.03131999"><ele></ele><time>2014-4-1T4:14:11Z</time></trkpt>
<trkpt lat="46.32187793" lon="7.03120097"><ele></ele><time>2014-4-1T4:14:14Z</time></trkpt>
<trkpt lat="46.32187500" lon="7.03115797"><ele></ele><time>2014-4-1T4:14:17Z</time></trkpt>
<trkpt lat="46.32182697" lon="7.03106099"><ele></ele><time>2014-4-1T4:14:20Z</time></trkpt>
<trkpt lat="46.32176293" lon="7.03089193"><ele></ele><time>2014-4-1T4:14:23Z</time></trkpt>
<trkpt lat="46.32173393" lon="7.03081297"><ele></ele><time>2014-4-1T4:14:26Z</time></trkpt>
<trkpt lat="46.32162396" lon="7.03065899"><ele></ele><time>2014-4-1T4:14:29Z</time></trkpt>
<trkpt lat="46.32153796" lon="7.03053393"><ele></ele><time>2014-4-1T4:14:32Z</time></trkpt>
<trkpt lat="46.32148499" lon="7.03041592"><ele></ele><time>2014-4-1T4:14:35Z</time></trkpt>
<trkpt lat="46.32139899" lon="7.03035397"><ele></ele><time>2014-4-1T4:14:38Z</time></trkpt>
<trkpt lat="46.32132397" lon="7.03031098"><ele></ele><time>2014-4-1T4:14:41Z</time></trkpt>
<trkpt lat="46.32130796" lon="7.03030293"><ele></ele><time>2014-4-1T4:14:44Z</time></trkpt>
<trkpt lat="46.32117896" lon="7.03021894"><ele></ele><time>2014-4-1T4:14:47Z</time></trkpt>
<trkpt lat="46.32109992" lon="7.03018298"><ele></ele><time>2014-4-1T4:14:50Z</time></trkpt>
<trkpt lat="46.32101200" lon="7.03012699"><ele></ele><time>2014-4-1T4:14:53Z</time></trkpt>
<trkpt lat="46.32093195" lon="7.03008894"><ele></ele><time>2014-4-1T4:14:56Z</time></trkpt>
<trkpt lat="46.32088996" lon="7.03006597"><ele></ele><time>2014-4-1T4:14:59Z</time></trkpt>
<trkpt lat="46.32081695" lon="7.03002700"><ele></ele><time>2014-4-1T4:15:2Z</time></trkpt>
<trkpt lat="46.32069197" lon="7.02994695"><ele></ele><time>2014-4-1T4:15:5Z</time></trkpt>
<trkpt lat="46.32061696" lon="7.02990596"><ele></ele><time>2014-4-1T4:15:8Z</time></trkpt>
<trkpt lat="46.32049299" lon="7.02982198"><ele></ele><time>2014-4-1T4:15:11Z</time></trkpt>
<trkpt lat="46.32038997" lon="7.02966196"><ele></ele><time>2014-4-1T4:15:14Z</time></trkpt>
<trkpt lat="46.32035594" lon="7.02964394"><ele></ele><time>2014-4-1T4:15:17Z</time></trkpt>
<trkpt lat="46.32028897" lon="7.02964897"><ele></ele><time>2014-4-1T4:15:20Z</time></trkpt>
<trkpt lat="46.32025595" lon="7.02967395"><ele></ele><time>2014-4-1T4:15:23Z</time></trkpt>
<trkpt lat="46.32023600" lon="7.02975693"><ele></ele><time>2014-4-1T4:15:26Z</time></trkpt>
<trkpt lat="46.32027498" lon="7.02977093"><ele></ele><time>2014-4-1T4:15:29Z</time></trkpt>
<trkpt lat="46.32033499" lon="7.02981292"><ele></ele><time>2014-4-1T4:15:32Z</time></trkpt>
<trkpt lat="46.32044194" lon="7.02988693"><ele></ele><time>2014-4-1T4:15:35Z</time></trkpt>
<trkpt lat="46.32052593" lon="7.02995994"><ele></ele><time>2014-4-1T4:15:38Z</time></trkpt>
<trkpt lat="46.32062299" lon="7.03007595"><ele></ele><time>2014-4-1T4:15:41Z</time></trkpt>
<trkpt lat="46.32069994" lon="7.03020394"><ele></ele><time>2014-4-1T4:15:44Z</time></trkpt>
<trkpt lat="46.32079893" lon="7.03033394"><ele></ele><time>2014-4-1T4:15:47Z</time></trkpt>
<trkpt lat="46.32089498" lon="7.03048197"><ele></ele><time>2014-4-1T4:15:50Z</time></trkpt>
<trkpt lat="46.32100194" lon="7.03064692"><ele></ele><time>2014-4-1T4:15:53Z</time></trkpt>
<trkpt lat="46.32106195" lon="7.03078900"><ele></ele><time>2014-4-1T4:15:56Z</time></trkpt>
<trkpt lat="46.32111099" lon="7.03098597"><ele></ele><time>2014-4-1T4:15:59Z</time></trkpt>
<trkpt lat="46.32116195" lon="7.03117297"><ele></ele><time>2014-4-1T4:16:2Z</time></trkpt>
<trkpt lat="46.32118592" lon="7.03127397"><ele></ele><time>2014-4-1T4:16:5Z</time></trkpt>
<trkpt lat="46.32125499" lon="7.03140498"><ele></ele><time>2014-4-1T4:16:8Z</time></trkpt>
<trkpt lat="46.32126697" lon="7.03142200"><ele></ele><time>2014-4-1T4:16:11Z</time></trkpt>
<trkpt lat="46.32130595" lon="7.03160699"><ele></ele><time>2014-4-1T4:16:14Z</time></trkpt>
<trkpt lat="46.32129698" lon="7.03172492"><ele></ele><time>2014-4-1T4:16:17Z</time></trkpt>
<trkpt lat="46.32129095" lon="7.03183497"><ele></ele><time>2014-4-1T4:16:20Z</time></trkpt>
<trkpt lat="46.32125893" lon="7.03200999"><ele></ele><time>2014-4-1T4:16:23Z</time></trkpt>
<trkpt lat="46.32125096" lon="7.03216698"><ele></ele><time>2014-4-1T4:16:26Z</time></trkpt>
<trkpt lat="46.32121199" lon="7.03238399"><ele></ele><time>2014-4-1T4:16:29Z</time></trkpt>
<trkpt lat="46.32121794" lon="7.03253193"><ele></ele><time>2014-4-1T4:16:32Z</time></trkpt>
<trkpt lat="46.32124895" lon="7.03273393"><ele></ele><time>2014-4-1T4:16:35Z</time></trkpt>
<trkpt lat="46.32129396" lon="7.03287693"><ele></ele><time>2014-4-1T4:16:38Z</time></trkpt>
<trkpt lat="46.32132699" lon="7.03293099"><ele></ele><time>2014-4-1T4:16:41Z</time></trkpt>
<trkpt lat="46.32135599" lon="7.03298899"><ele></ele><time>2014-4-1T4:16:44Z</time></trkpt>
<trkpt lat="46.32140293" lon="7.03305596"><ele></ele><time>2014-4-1T4:16:47Z</time></trkpt>
<trkpt lat="46.32148499" lon="7.03317993"><ele></ele><time>2014-4-1T4:16:50Z</time></trkpt>
<trkpt lat="46.32153494" lon="7.03327197"><ele></ele><time>2014-4-1T4:16:53Z</time></trkpt>
<trkpt lat="46.32158892" lon="7.03337699"><ele></ele><time>2014-4-1T4:16:56Z</time></trkpt>
<trkpt lat="46.32167098" lon="7.03351093"><ele></ele><time>2014-4-1T4:16:59Z</time></trkpt>
<trkpt lat="46.32168297" lon="7.03353097"><ele></ele><time>2014-4-1T4:17:2Z</time></trkpt>
<trkpt lat="46.32171599" lon="7.03362292"><ele></ele><time>2014-4-1T4:17:5Z</time></trkpt>
<trkpt lat="46.32182093" lon="7.03383397"><ele></ele><time>2014-4-1T4:17:8Z</time></trkpt>
<trkpt lat="46.32185698" lon="7.03398996"><ele></ele><time>2014-4-1T4:17:11Z</time></trkpt>
<trkpt lat="46.32190693" lon="7.03410597"><ele></ele><time>2014-4-1T4:17:14Z</time></trkpt>
<trkpt lat="46.32200793" lon="7.03428098"><ele></ele><time>2014-4-1T4:17:17Z</time></trkpt>
<trkpt lat="46.32206392" lon="7.03442498"><ele></ele><time>2014-4-1T4:17:20Z</time></trkpt>
<trkpt lat="46.32208899" lon="7.03456295"><ele></ele><time>2014-4-1T4:17:23Z</time></trkpt>
<trkpt lat="46.32210500" lon="7.03471097"><ele></ele><time>2014-4-1T4:17:26Z</time></trkpt>
<trkpt lat="46.32210894" lon="7.03476294"><ele></ele><time>2014-4-1T4:17:29Z</time></trkpt>
<trkpt lat="46.32208597" lon="7.03498196"><ele></ele><time>2014-4-1T4:17:32Z</time></trkpt>
<trkpt lat="46.32208697" lon="7.03500895"><ele></ele><time>2014-4-1T4:17:35Z</time></trkpt>
<trkpt lat="46.32206292" lon="7.03518296"><ele></ele><time>2014-4-1T4:17:38Z</time></trkpt>
<trkpt lat="46.32208899" lon="7.03533995"><ele></ele><time>2014-4-1T4:17:41Z</time></trkpt>
<trkpt lat="46.32210097" lon="7.03536795"><ele></ele><time>2014-4-1T4:17:44Z</time></trkpt>
<trkpt lat="46.32220499" lon="7.03556492"><ele></ele><time>2014-4-1T4:17:47Z</time></trkpt>
<trkpt lat="46.32224699" lon="7.03564094"><ele></ele><time>2014-4-1T4:17:50Z</time></trkpt>
<trkpt lat="46.32232293" lon="7.03578796"><ele></ele><time>2014-4-1T4:17:53Z</time></trkpt>
<trkpt lat="46.32234799" lon="7.03599793"><ele></ele><time>2014-4-1T4:17:56Z</time></trkpt>
<trkpt lat="46.32232494" lon="7.03611997"><ele></ele><time>2014-4-1T4:17:59Z</time></trkpt>
<trkpt lat="46.32225897" lon="7.03612098"><ele></ele><time>2014-4-1T4:18:2Z</time></trkpt>
<trkpt lat="46.32223299" lon="7.03596599"><ele></ele><time>2014-4-1T4:18:5Z</time></trkpt>
<trkpt lat="46.32221396" lon="7.03592492"><ele></ele><time>2014-4-1T4:18:8Z</time></trkpt>
<trkpt lat="46.32211598" lon="7.03581596"><ele></ele><time>2014-4-1T4:18:11Z</time></trkpt>
<trkpt lat="46.32202495" lon="7.03575393"><ele></ele><time>2014-4-1T4:18:14Z</time></trkpt>
<trkpt lat="46.32199000" lon="7.03569199"><ele></ele><time>2014-4-1T4:18:17Z</time></trkpt>
<trkpt lat="46.32198597" lon="7.03568294"><ele></ele><time>2014-4-1T4:18:20Z</time></trkpt>
<trkpt lat="46.32196896" lon="7.03560398"><ele></ele><time>2014-4-1T4:18:23Z</time></trkpt>
<trkpt lat="46.32191699" lon="7.03543693"><ele></ele><time>2014-4-1T4:18:26Z</time></trkpt>
<trkpt lat="46.32189495" lon="7.03537297"><ele></ele><time>2014-4-1T4:18:29Z</time></trkpt>
<trkpt lat="46.32183694" lon="7.03520793"><ele></ele><time>2014-4-1T4:18:32Z</time></trkpt>
<trkpt lat="46.32168598" lon="7.03498095"><ele></ele><time>2014-4-1T4:18:35Z</time></trkpt>
<trkpt lat="46.32162396" lon="7.03489797"><ele></ele><time>2014-4-1T4:18:38Z</time></trkpt>
<trkpt lat="46.32157593" lon="7.03475799"><ele></ele><time>2014-4-1T4:18:41Z</time></trkpt>
<trkpt lat="46.32151198" lon="7.03459798"><ele></ele><time>2014-4-1T4:18:44Z</time></trkpt>
<trkpt lat="46.32142497" lon="7.03445893"><ele></ele><time>2014-4-1T4:18:47Z</time></trkpt>
<trkpt lat="46.32132992" lon="7.03432096"><ele></ele><time>2014-4-1T4:18:50Z</time></trkpt>
<trkpt lat="46.32124292" lon="7.03420898"><ele></ele><time>2014-4-1T4:18:53Z</time></trkpt>
<trkpt lat="46.32113194" lon="7.03409599"><ele></ele><time>2014-4-1T4:18:56Z</time></trkpt>
<trkpt lat="46.32105198" lon="7.03397295"><ele></ele><time>2014-4-1T4:18:59Z</time></trkpt>
<trkpt lat="46.32098794" lon="7.03387395"><ele></ele><time>2014-4-1T4:19:2Z</time></trkpt>
<trkpt lat="46.32089792" lon="7.03379894"><ele></ele><time>2014-4-1T4:19:5Z</time></trkpt>
<trkpt lat="46.32081896" lon="7.03372995"><ele></ele><time>2014-4-1T4:19:8Z</time></trkpt>
<trkpt lat="46.32071796" lon="7.03353692"><ele></ele><time>2014-4-1T4:19:11Z</time></trkpt>
<trkpt lat="46.32060698" lon="7.03336593"><ele></ele><time>2014-4-1T4:19:14Z</time></trkpt>
<trkpt lat="46.32053993" lon="7.03331899"><ele></ele><time>2014-4-1T4:19:17Z</time></trkpt>
<trkpt lat="46.32042895" lon="7.03324498"><ele></ele><time>2014-4-1T4:19:20Z</time></trkpt>
<trkpt lat="46.32030800" lon="7.03316594"><ele></ele><time>2014-4-1T4:19:23Z</time></trkpt>
<trkpt lat="46.32020792" lon="7.03308497"><ele></ele><time>2014-4-1T4:19:26Z</time></trkpt>
<trkpt lat="46.32011597" lon="7.03299595"><ele></ele><time>2014-4-1T4:19:29Z</time></trkpt>
<trkpt lat="46.32009795" lon="7.03297692"><ele></ele><time>2014-4-1T4:19:32Z</time></trkpt>
<trkpt lat="46.32003400" lon="7.03295094"><ele></ele><time>2014-4-1T4:19:35Z</time></trkpt>
<trkpt lat="46.31999494" lon="7.03291800"><ele></ele><time>2014-4-1T4:19:38Z</time></trkpt>
<trkpt lat="46.31992294" lon="7.03281892"><ele></ele><time>2014-4-1T4:19:41Z</time></trkpt>
<trkpt lat="46.31980098" lon="7.03263394"><ele></ele><time>2014-4-1T4:19:44Z</time></trkpt>
<trkpt lat="46.31973200" lon="7.03256495"><ele></ele><time>2014-4-1T4:19:47Z</time></trkpt>
<trkpt lat="46.31964197" lon="7.03248600"><ele></ele><time>2014-4-1T4:19:50Z</time></trkpt>
<trkpt lat="46.31956092" lon="7.03239899"><ele></ele><time>2014-4-1T4:19:53Z</time></trkpt>
<trkpt lat="46.31949898" lon="7.03236697"><ele></ele><time>2014-4-1T4:19:56Z</time></trkpt>
<trkpt lat="46.31941399" lon="7.03229095"><ele></ele><time>2014-4-1T4:19:59Z</time></trkpt>
<trkpt lat="46.31928792" lon="7.03218693"><ele></ele><time>2014-4-1T4:20:2Z</time></trkpt>
<trkpt lat="46.31925699" lon="7.03215499"><ele></ele><time>2014-4-1T4:20:5Z</time></trkpt>
<trkpt lat="46.31913194" lon="7.03201493"><ele></ele><time>2014-4-1T4:20:8Z</time></trkpt>
<trkpt lat="46.31904393" lon="7.03189499"><ele></ele><time>2014-4-1T4:20:11Z</time></trkpt>
<trkpt lat="46.31895893" lon="7.03173397"><ele></ele><time>2014-4-1T4:20:14Z</time></trkpt>
<trkpt lat="46.31892398" lon="7.03164596"><ele></ele><time>2014-4-1T4:20:17Z</time></trkpt>
<trkpt lat="46.31882197" lon="7.03158796"><ele></ele><time>2014-4-1T4:20:20Z</time></trkpt>
<trkpt lat="46.31876095" lon="7.03154697"><ele></ele><time>2014-4-1T4:20:23Z</time></trkpt>
<trkpt lat="46.31866992" lon="7.03153096"><ele></ele><time>2014-4-1T4:20:26Z</time></trkpt>
<trkpt lat="46.31854797" lon="7.03149995"><ele></ele><time>2014-4-1T4:20:29Z</time></trkpt>
<trkpt lat="46.31846499" lon="7.03151596"><ele></ele><time>2014-4-1T4:20:32Z</time></trkpt>
<trkpt lat="46.31837094" lon="7.03154999"><ele></ele><time>2014-4-1T4:20:35Z</time></trkpt>
<trkpt lat="46.31824798" lon="7.03152593"><ele></ele><time>2014-4-1T4:20:38Z</time></trkpt>
<trkpt lat="46.31812200" lon="7.03147396"><ele></ele><time>2014-4-1T4:20:41Z</time></trkpt>
<trkpt lat="46.31811094" lon="7.03146692"><ele></ele><time>2014-4-1T4:20:44Z</time></trkpt>
<trkpt lat="46.31804598" lon="7.03137397"><ele></ele><time>2014-4-1T4:20:47Z</time></trkpt>
<trkpt lat="46.31792595" lon="7.03143893"><ele></ele><time>2014-4-1T4:20:50Z</time></trkpt>
<trkpt lat="46.31791396" lon="7.03147899"><ele></ele><time>2014-4-1T4:20:53Z</time></trkpt>
<trkpt lat="46.31794196" lon="7.03148796"><ele></ele><time>2014-4-1T4:20:56Z</time></trkpt>
<trkpt lat="46.31805000" lon="7.03155200"><ele></ele><time>2014-4-1T4:20:59Z</time></trkpt>
<trkpt lat="46.31812594" lon="7.03161696"><ele></ele><time>2014-4-1T4:21:2Z</time></trkpt>
<trkpt lat="46.31822292" lon="7.03167697"><ele></ele><time>2014-4-1T4:21:5Z</time></trkpt>
<trkpt lat="46.31830900" lon="7.03173799"><ele></ele><time>2014-4-1T4:21:8Z</time></trkpt>
<trkpt lat="46.31837094" lon="7.03179994"><ele></ele><time>2014-4-1T4:21:11Z</time></trkpt>
<trkpt lat="46.31842299" lon="7.03184092"><ele></ele><time>2014-4-1T4:21:14Z</time></trkpt>
<trkpt lat="46.31852492" lon="7.03190899"><ele></ele><time>2014-4-1T4:21:17Z</time></trkpt>
<trkpt lat="46.31858493" lon="7.03194394"><ele></ele><time>2014-4-1T4:21:20Z</time></trkpt>
<trkpt lat="46.31864696" lon="7.03198199"><ele></ele><time>2014-4-1T4:21:23Z</time></trkpt>
<trkpt lat="46.31870597" lon="7.03204293"><ele></ele><time>2014-4-1T4:21:26Z</time></trkpt>
<trkpt lat="46.31878593" lon="7.03217796"><ele></ele><time>2014-4-1T4:21:29Z</time></trkpt>
<trkpt lat="46.31881594" lon="7.03235499"><ele></ele><time>2014-4-1T4:21:32Z</time></trkpt>
<trkpt lat="46.31881895" lon="7.03244199"><ele></ele><time>2014-4-1T4:21:35Z</time></trkpt>
<trkpt lat="46.31885097" lon="7.03257099"><ele></ele><time>2014-4-1T4:21:38Z</time></trkpt>
<trkpt lat="46.31885500" lon="7.03276696"><ele></ele><time>2014-4-1T4:21:41Z</time></trkpt>
<trkpt lat="46.31885793" lon="7.03281499"><ele></ele><time>2014-4-1T4:21:44Z</time></trkpt>
<trkpt lat="46.31892096" lon="7.03293200"><ele></ele><time>2014-4-1T4:21:47Z</time></trkpt>
<trkpt lat="46.31893395" lon="7.03300492"><ele></ele><time>2014-4-1T4:21:50Z</time></trkpt>
<trkpt lat="46.31902699" lon="7.03317298"><ele></ele><time>2014-4-1T4:21:53Z</time></trkpt>
<trkpt lat="46.31906496" lon="7.03324397"><ele></ele><time>2014-4-1T4:21:56Z</time></trkpt>
<trkpt lat="46.31910595" lon="7.03331295"><ele></ele><time>2014-4-1T4:21:59Z</time></trkpt>
<trkpt lat="46.31917996" lon="7.03337599"><ele></ele><time>2014-4-1T4:22:2Z</time></trkpt>
<trkpt lat="46.31927493" lon="7.03345193"><ele></ele><time>2014-4-1T4:22:5Z</time></trkpt>
<trkpt lat="46.31936596" lon="7.03349392"><ele></ele><time>2014-4-1T4:22:8Z</time></trkpt>
<trkpt lat="46.31945699" lon="7.03357598"><ele></ele><time>2014-4-1T4:22:11Z</time></trkpt>
<trkpt lat="46.31956293" lon="7.03370397"><ele></ele><time>2014-4-1T4:22:14Z</time></trkpt>
<trkpt lat="46.31962395" lon="7.03377999"><ele></ele><time>2014-4-1T4:22:17Z</time></trkpt>
<trkpt lat="46.31974298" lon="7.03390296"><ele></ele><time>2014-4-1T4:22:20Z</time></trkpt>
<trkpt lat="46.31982294" lon="7.03402198"><ele></ele><time>2014-4-1T4:22:23Z</time></trkpt>
<trkpt lat="46.31991698" lon="7.03417093"><ele></ele><time>2014-4-1T4:22:26Z</time></trkpt>
<trkpt lat="46.31998697" lon="7.03432993"><ele></ele><time>2014-4-1T4:22:29Z</time></trkpt>
<trkpt lat="46.32005093" lon="7.03452397"><ele></ele><time>2014-4-1T4:22:32Z</time></trkpt>
<trkpt lat="46.32006895" lon="7.03468398"><ele></ele><time>2014-4-1T4:22:35Z</time></trkpt>
<trkpt lat="46.32008295" lon="7.03483595"><ele></ele><time>2014-4-1T4:22:38Z</time></trkpt>
<trkpt lat="46.32017598" lon="7.03502295"><ele></ele><time>2014-4-1T4:22:41Z</time></trkpt>
<trkpt lat="46.32021094" lon="7.03517994"><ele></ele><time>2014-4-1T4:22:44Z</time></trkpt>
<trkpt lat="46.32025000" lon="7.03528698"><ele></ele><time>2014-4-1T4:22:47Z</time></trkpt>
<trkpt lat="46.32028696" lon="7.03539996"><ele></ele><time>2014-4-1T4:22:50Z</time></trkpt>
<trkpt lat="46.32032393" lon="7.03553298"><ele></ele><time>2014-4-1T4:22:53Z</time></trkpt>
<trkpt lat="46.32036399" lon="7.03569199"><ele></ele><time>2014-4-1T4:22:56Z</time></trkpt>
<trkpt lat="46.32036894" lon="7.03573398"><ele></ele><time>2014-4-1T4:22:59Z</time></trkpt>
<trkpt lat="46.32039995" lon="7.03583498"><ele></ele><time>2014-4-1T4:23:2Z</time></trkpt>
<trkpt lat="46.32045493" lon="7.03597597"><ele></ele><time>2014-4-1T4:23:5Z</time></trkpt>
<trkpt lat="46.32047698" lon="7.03603699"><ele></ele><time>2014-4-1T4:23:8Z</time></trkpt>
<trkpt lat="46.32057698" lon="7.03618292"><ele></ele><time>2014-4-1T4:23:11Z</time></trkpt>
<trkpt lat="46.32063699" lon="7.03634796"><ele></ele><time>2014-4-1T4:23:14Z</time></trkpt>
<trkpt lat="46.32065300" lon="7.03640495"><ele></ele><time>2014-4-1T4:23:17Z</time></trkpt>
<trkpt lat="46.32063498" lon="7.03658399"><ele></ele><time>2014-4-1T4:23:20Z</time></trkpt>
<trkpt lat="46.32060899" lon="7.03670997"><ele></ele><time>2014-4-1T4:23:23Z</time></trkpt>
<trkpt lat="46.32060598" lon="7.03676797"><ele></ele><time>2014-4-1T4:23:26Z</time></trkpt>
<trkpt lat="46.32058494" lon="7.03695296"><ele></ele><time>2014-4-1T4:23:29Z</time></trkpt>
<trkpt lat="46.32061495" lon="7.03708699"><ele></ele><time>2014-4-1T4:23:32Z</time></trkpt>
<trkpt lat="46.32065593" lon="7.03722093"><ele></ele><time>2014-4-1T4:23:35Z</time></trkpt>
<trkpt lat="46.32071595" lon="7.03735597"><ele></ele><time>2014-4-1T4:23:38Z</time></trkpt>
<trkpt lat="46.32080697" lon="7.03748798"><ele></ele><time>2014-4-1T4:23:41Z</time></trkpt>
<trkpt lat="46.32089993" lon="7.03754699"><ele></ele><time>2014-4-1T4:23:44Z</time></trkpt>
<trkpt lat="46.32100797" lon="7.03760197"><ele></ele><time>2014-4-1T4:23:47Z</time></trkpt>
<trkpt lat="46.32115600" lon="7.03765998"><ele></ele><time>2014-4-1T4:23:50Z</time></trkpt>
<trkpt lat="46.32127192" lon="7.03768697"><ele></ele><time>2014-4-1T4:23:53Z</time></trkpt>
<trkpt lat="46.32134199" lon="7.03777598"><ele></ele><time>2014-4-1T4:23:56Z</time></trkpt>
<trkpt lat="46.32136697" lon="7.03794798"><ele></ele><time>2014-4-1T4:23:59Z</time></trkpt>
<trkpt lat="46.32133093" lon="7.03810095"><ele></ele><time>2014-4-1T4:24:2Z</time></trkpt>
<trkpt lat="46.32120897" lon="7.03799299"><ele></ele><time>2014-4-1T4:24:5Z</time></trkpt>
<trkpt lat="46.32118399" lon="7.03796893"><ele></ele><time>2014-4-1T4:24:8Z</time></trkpt>
<trkpt lat="46.32108794" lon="7.03790992"><ele></ele><time>2014-4-1T4:24:11Z</time></trkpt>
<trkpt lat="46.32097696" lon="7.03788394"><ele></ele><time>2014-4-1T4:24:14Z</time></trkpt>
<trkpt lat="46.32087898" lon="7.03781898"><ele></ele><time>2014-4-1T4:24:17Z</time></trkpt>
<trkpt lat="46.32080295" lon="7.03777799"><ele></ele><time>2014-4-1T4:24:20Z</time></trkpt>
<trkpt lat="46.32068393" lon="7.03772494"><ele></ele><time>2014-4-1T4:24:23Z</time></trkpt>
<trkpt lat="46.32061897" lon="7.03766199"><ele></ele><time>2014-4-1T4:24:26Z</time></trkpt>
<trkpt lat="46.32049793" lon="7.03755395"><ele></ele><time>2014-4-1T4:24:29Z</time></trkpt>
<trkpt lat="46.32036592" lon="7.03739796"><ele></ele><time>2014-4-1T4:24:32Z</time></trkpt>
<trkpt lat="46.32026693" lon="7.03727198"><ele></ele><time>2014-4-1T4:24:35Z</time></trkpt>
<trkpt lat="46.32014992" lon="7.03708992"><ele></ele><time>2014-4-1T4:24:38Z</time></trkpt>
<trkpt lat="46.32006392" lon="7.03694098"><ele></ele><time>2014-4-1T4:24:41Z</time></trkpt>
<trkpt lat="46.31994599" lon="7.03674300"><ele></ele><time>2014-4-1T4:24:44Z</time></trkpt>
<trkpt lat="46.31982897" lon="7.03656195"><ele></ele><time>2014-4-1T4:24:47Z</time></trkpt>
<trkpt lat="46.31969092" lon="7.03643697"><ele></ele><time>2014-4-1T4:24:50Z</time></trkpt>
<trkpt lat="46.31956000" lon="7.03640395"><ele></ele><time>2014-4-1T4:24:53Z</time></trkpt>
<trkpt lat="46.31946897" lon="7.03648098"><ele></ele><time>2014-4-1T4:24:56Z</time></trkpt>
<trkpt lat="46.31943595" lon="7.03650998"><ele></ele><time>2014-4-1T4:24:59Z</time></trkpt>
<trkpt lat="46.31939395" lon="7.03672095"><ele></ele><time>2014-4-1T4:25:2Z</time></trkpt>
<trkpt lat="46.31947693" lon="7.03690695"><ele></ele><time>2014-4-1T4:25:5Z</time></trkpt>
<trkpt lat="46.31963594" lon="7.03697593"><ele></ele><time>2014-4-1T4:25:8Z</time></trkpt>
<trkpt lat="46.31978698" lon="7.03706997"><ele></ele><time>2014-4-1T4:25:11Z</time></trkpt>
<trkpt lat="46.31989494" lon="7.03726100"><ele></ele><time>2014-4-1T4:25:14Z</time></trkpt>
<trkpt lat="46.31990097" lon="7.03734599"><ele></ele><time>2014-4-1T4:25:17Z</time></trkpt>
<trkpt lat="46.31978799" lon="7.03744196"><ele></ele><time>2014-4-1T4:25:20Z</time></trkpt>
<trkpt lat="46.31972596" lon="7.03742595"><ele></ele><time>2014-4-1T4:25:23Z</time></trkpt>
<trkpt lat="46.31950292" lon="7.03727692"><ele></ele><time>2014-4-1T4:25:26Z</time></trkpt>
<trkpt lat="46.31929697" lon="7.03712697"><ele></ele><time>2014-4-1T4:25:29Z</time></trkpt>
<trkpt lat="46.31908097" lon="7.03694592"><ele></ele><time>2014-4-1T4:25:32Z</time></trkpt>
<trkpt lat="46.31895793" lon="7.03677996"><ele></ele><time>2014-4-1T4:25:35Z</time></trkpt>
<trkpt lat="46.31882893" lon="7.03655600"><ele></ele><time>2014-4-1T4:25:38Z</time></trkpt>
<trkpt lat="46.31870597" lon="7.03638995"><ele></ele><time>2014-4-1T4:25:41Z</time></trkpt>
<trkpt lat="46.31857999" lon="7.03625592"><ele></ele><time>2014-4-1T4:25:44Z</time></trkpt>
<trkpt lat="46.31846993" lon="7.03616699"><ele></ele><time>2014-4-1T4:25:47Z</time></trkpt>
<trkpt lat="46.31837295" lon="7.03605300"><ele></ele><time>2014-4-1T4:25:50Z</time></trkpt>
<trkpt lat="46.31824094" lon="7.03590296"><ele></ele><time>2014-4-1T4:25:53Z</time></trkpt>
<trkpt lat="46.31815000" lon="7.03578000"><ele></ele><time>2014-4-1T4:25:56Z</time></trkpt>
<trkpt lat="46.31799895" lon="7.03561295"><ele></ele><time>2014-4-1T4:25:59Z</time></trkpt>
<trkpt lat="46.31788496" lon="7.03547498"><ele></ele><time>2014-4-1T4:26:2Z</time></trkpt>
<trkpt lat="46.31776099" lon="7.03537197"><ele></ele><time>2014-4-1T4:26:5Z</time></trkpt>
<trkpt lat="46.31764892" lon="7.03530097"><ele></ele><time>2014-4-1T4:26:8Z</time></trkpt>
<trkpt lat="46.31754197" lon="7.03517994"><ele></ele><time>2014-4-1T4:26:11Z</time></trkpt>
<trkpt lat="46.31743100" lon="7.03504994"><ele></ele><time>2014-4-1T4:26:14Z</time></trkpt>
<trkpt lat="46.31732396" lon="7.03490493"><ele></ele><time>2014-4-1T4:26:17Z</time></trkpt>
<trkpt lat="46.31719999" lon="7.03478297"><ele></ele><time>2014-4-1T4:26:20Z</time></trkpt>
<trkpt lat="46.31707795" lon="7.03465599"><ele></ele><time>2014-4-1T4:26:23Z</time></trkpt>
<trkpt lat="46.31691199" lon="7.03455792"><ele></ele><time>2014-4-1T4:26:26Z</time></trkpt>
<trkpt lat="46.31678492" lon="7.03444795"><ele></ele><time>2014-4-1T4:26:29Z</time></trkpt>
<trkpt lat="46.31664000" lon="7.03425500"><ele></ele><time>2014-4-1T4:26:32Z</time></trkpt>
<trkpt lat="46.31656397" lon="7.03414494"><ele></ele><time>2014-4-1T4:26:35Z</time></trkpt>
<trkpt lat="46.31650195" lon="7.03402994"><ele></ele><time>2014-4-1T4:26:38Z</time></trkpt>
<trkpt lat="46.31645199" lon="7.03388594"><ele></ele><time>2014-4-1T4:26:41Z</time></trkpt>
<trkpt lat="46.31642894" lon="7.03377396"><ele></ele><time>2014-4-1T4:26:44Z</time></trkpt>
<trkpt lat="46.31637597" lon="7.03364295"><ele></ele><time>2014-4-1T4:26:47Z</time></trkpt>
<trkpt lat="46.31629298" lon="7.03347296"><ele></ele><time>2014-4-1T4:26:50Z</time></trkpt>
<trkpt lat="46.31617296" lon="7.03327398"><ele></ele><time>2014-4-1T4:26:53Z</time></trkpt>
<trkpt lat="46.31603197" lon="7.03309997"><ele></ele><time>2014-4-1T4:26:56Z</time></trkpt>
<trkpt lat="46.31593994" lon="7.03302093"><ele></ele><time>2014-4-1T4:26:59Z</time></trkpt>
<trkpt lat="46.31581195" lon="7.03285798"><ele></ele><time>2014-4-1T4:27:2Z</time></trkpt>
<trkpt lat="46.31565697" lon="7.03265799"><ele></ele><time>2014-4-1T4:27:5Z</time></trkpt>
<trkpt lat="46.31551799" lon="7.03253394"><ele></ele><time>2014-4-1T4:27:8Z</time></trkpt>
<trkpt lat="46.31536293" lon="7.03238399"><ele></ele><time>2014-4-1T4:27:11Z</time></trkpt>
<trkpt lat="46.31523393" lon="7.03222993"><ele></ele><time>2014-4-1T4:27:14Z</time></trkpt>
<trkpt lat="46.31511692" lon="7.03207394"><ele></ele><time>2014-4-1T4:27:17Z</time></trkpt>
<trkpt lat="46.31501298" lon="7.03196900"><ele></ele><time>2014-4-1T4:27:20Z</time></trkpt>
<trkpt lat="46.31490394" lon="7.03186993"><ele></ele><time>2014-4-1T4:27:23Z</time></trkpt>
<trkpt lat="46.31480997" lon="7.03177094"><ele></ele><time>2014-4-1T4:27:26Z</time></trkpt>
<trkpt lat="46.31477293" lon="7.03174596"><ele></ele><time>2014-4-1T4:27:29Z</time></trkpt>
<trkpt lat="46.31461493" lon="7.03167697"><ele></ele><time>2014-4-1T4:27:32Z</time></trkpt>
<trkpt lat="46.31452692" lon="7.03166993"><ele></ele><time>2014-4-1T4:27:35Z</time></trkpt>
<trkpt lat="46.31433992" lon="7.03168594"><ele></ele><time>2014-4-1T4:27:38Z</time></trkpt>
<trkpt lat="46.31414797" lon="7.03177999"><ele></ele><time>2014-4-1T4:27:41Z</time></trkpt>
<trkpt lat="46.31404798" lon="7.03190899"><ele></ele><time>2014-4-1T4:27:44Z</time></trkpt>
<trkpt lat="46.31395695" lon="7.03207092"><ele></ele><time>2014-4-1T4:27:47Z</time></trkpt>
<trkpt lat="46.31384195" lon="7.03222498"><ele></ele><time>2014-4-1T4:27:50Z</time></trkpt>
<trkpt lat="46.31375293" lon="7.03237192"><ele></ele><time>2014-4-1T4:27:53Z</time></trkpt>
<trkpt lat="46.31368093" lon="7.03253092"><ele></ele><time>2014-4-1T4:27:56Z</time></trkpt>
<trkpt lat="46.31365897" lon="7.03257199"><ele></ele><time>2014-4-1T4:27:59Z</time></trkpt>
<trkpt lat="46.31360197" lon="7.03274894"><ele></ele><time>2014-4-1T4:28:2Z</time></trkpt>
<trkpt lat="46.31359292" lon="7.03277098"><ele></ele><time>2014-4-1T4:28:5Z</time></trkpt>
<trkpt lat="46.31351396" lon="7.03296393"><ele></ele><time>2014-4-1T4:28:8Z</time></trkpt>
<trkpt lat="46.31342998" lon="7.03311900"><ele></ele><time>2014-4-1T4:28:11Z</time></trkpt>
<trkpt lat="46.31333493" lon="7.03323794"><ele></ele><time>2014-4-1T4:28:14Z</time></trkpt>
<trkpt lat="46.31325195" lon="7.03336995"><ele></ele><time>2014-4-1T4:28:17Z</time></trkpt>
<trkpt lat="46.31313393" lon="7.03356793"><ele></ele><time>2014-4-1T4:28:20Z</time></trkpt>
<trkpt lat="46.31305497" lon="7.03373297"><ele></ele><time>2014-4-1T4:28:23Z</time></trkpt>
<trkpt lat="46.31294399" lon="7.03391897"><ele></ele><time>2014-4-1T4:28:26Z</time></trkpt>
<trkpt lat="46.31283595" lon="7.03408300"><ele></ele><time>2014-4-1T4:28:29Z</time></trkpt>
<trkpt lat="46.31273797" lon="7.03421694"><ele></ele><time>2014-4-1T4:28:32Z</time></trkpt>
<trkpt lat="46.31263596" lon="7.03436597"><ele></ele><time>2014-4-1T4:28:35Z</time></trkpt>
<trkpt lat="46.31251199" lon="7.03449195"><ele></ele><time>2014-4-1T4:28:38Z</time></trkpt>
<trkpt lat="46.31243496" lon="7.03459396"><ele></ele><time>2014-4-1T4:28:41Z</time></trkpt>
<trkpt lat="46.31231795" lon="7.03473696"><ele></ele><time>2014-4-1T4:28:44Z</time></trkpt>
<trkpt lat="46.31220396" lon="7.03489395"><ele></ele><time>2014-4-1T4:28:47Z</time></trkpt>
<trkpt lat="46.31202894" lon="7.03506293"><ele></ele><time>2014-4-1T4:28:50Z</time></trkpt>
<trkpt lat="46.31187094" lon="7.03525496"><ele></ele><time>2014-4-1T4:28:53Z</time></trkpt>
<trkpt lat="46.31171999" lon="7.03542394"><ele></ele><time>2014-4-1T4:28:56Z</time></trkpt>
<trkpt lat="46.31159099" lon="7.03560197"><ele></ele><time>2014-4-1T4:28:59Z</time></trkpt>
<trkpt lat="46.31142997" lon="7.03582996"><ele></ele><time>2014-4-1T4:29:2Z</time></trkpt>
<trkpt lat="46.31128396" lon="7.03604797"><ele></ele><time>2014-4-1T4:29:5Z</time></trkpt>
<trkpt lat="46.31113292" lon="7.03629096"><ele></ele><time>2014-4-1T4:29:8Z</time></trkpt>
<trkpt lat="46.31096394" lon="7.03661199"><ele></ele><time>2014-4-1T4:29:11Z</time></trkpt>
<trkpt lat="46.31086495" lon="7.03697593"><ele></ele><time>2014-4-1T4:29:14Z</time></trkpt>
<trkpt lat="46.31084894" lon="7.03732898"><ele></ele><time>2014-4-1T4:29:17Z</time></trkpt>
<trkpt lat="46.31081298" lon="7.03760298"><ele></ele><time>2014-4-1T4:29:20Z</time></trkpt>
<trkpt lat="46.31077694" lon="7.03786399"><ele></ele><time>2014-4-1T4:29:23Z</time></trkpt>
<trkpt lat="46.31076998" lon="7.03821000"><ele></ele><time>2014-4-1T4:29:26Z</time></trkpt>
<trkpt lat="46.31078498" lon="7.03849800"><ele></ele><time>2014-4-1T4:29:29Z</time></trkpt>
<trkpt lat="46.31081399" lon="7.03891793"><ele></ele><time>2014-4-1T4:29:32Z</time></trkpt>
<trkpt lat="46.31084098" lon="7.03909697"><ele></ele><time>2014-4-1T4:29:35Z</time></trkpt>
<trkpt lat="46.31088297" lon="7.03921398"><ele></ele><time>2014-4-1T4:29:38Z</time></trkpt>
<trkpt lat="46.31093292" lon="7.03932295"><ele></ele><time>2014-4-1T4:29:41Z</time></trkpt>
<trkpt lat="46.31103996" lon="7.03970793"><ele></ele><time>2014-4-1T4:29:44Z</time></trkpt>
<trkpt lat="46.31120995" lon="7.04019894"><ele></ele><time>2014-4-1T4:29:47Z</time></trkpt>
<trkpt lat="46.31131397" lon="7.04053899"><ele></ele><time>2014-4-1T4:29:50Z</time></trkpt>
<trkpt lat="46.31137993" lon="7.04078894"><ele></ele><time>2014-4-1T4:29:53Z</time></trkpt>
<trkpt lat="46.31149594" lon="7.04105096"><ele></ele><time>2014-4-1T4:29:56Z</time></trkpt>
<trkpt lat="46.31154296" lon="7.04129697"><ele></ele><time>2014-4-1T4:29:59Z</time></trkpt>
<trkpt lat="46.31150298" lon="7.04154499"><ele></ele><time>2014-4-1T4:30:2Z</time></trkpt>
<trkpt lat="46.31149393" lon="7.04167994"><ele></ele><time>2014-4-1T4:30:5Z</time></trkpt>
<trkpt lat="46.31147599" lon="7.04192092"><ele></ele><time>2014-4-1T4:30:8Z</time></trkpt>
<trkpt lat="46.31148697" lon="7.04215695"><ele></ele><time>2014-4-1T4:30:11Z</time></trkpt>
<trkpt lat="46.31148697" lon="7.04235493"><ele></ele><time>2014-4-1T4:30:14Z</time></trkpt>
<trkpt lat="46.31153692" lon="7.04256599"><ele></ele><time>2014-4-1T4:30:17Z</time></trkpt>
<trkpt lat="46.31157800" lon="7.04277897"><ele></ele><time>2014-4-1T4:30:20Z</time></trkpt>
<trkpt lat="46.31161395" lon="7.04308692"><ele></ele><time>2014-4-1T4:30:23Z</time></trkpt>
<trkpt lat="46.31161898" lon="7.04336998"><ele></ele><time>2014-4-1T4:30:26Z</time></trkpt>
<trkpt lat="46.31163298" lon="7.04369796"><ele></ele><time>2014-4-1T4:30:29Z</time></trkpt>
<trkpt lat="46.31159099" lon="7.04402494"><ele></ele><time>2014-4-1T4:30:32Z</time></trkpt>
<trkpt lat="46.31152293" lon="7.04420792"><ele></ele><time>2014-4-1T4:30:35Z</time></trkpt>
<trkpt lat="46.31141799" lon="7.04463196"><ele></ele><time>2014-4-1T4:30:38Z</time></trkpt>
<trkpt lat="46.31143894" lon="7.04500797"><ele></ele><time>2014-4-1T4:30:41Z</time></trkpt>
<trkpt lat="46.31140994" lon="7.04541592"><ele></ele><time>2014-4-1T4:30:44Z</time></trkpt>
<trkpt lat="46.31140298" lon="7.04585999"><ele></ele><time>2014-4-1T4:30:47Z</time></trkpt>
<trkpt lat="46.31141698" lon="7.04608094"><ele></ele><time>2014-4-1T4:30:50Z</time></trkpt>
<trkpt lat="46.31142494" lon="7.04630298"><ele></ele><time>2014-4-1T4:30:53Z</time></trkpt>
<trkpt lat="46.31144900" lon="7.04645494"><ele></ele><time>2014-4-1T4:30:56Z</time></trkpt>
<trkpt lat="46.31148797" lon="7.04664697"><ele></ele><time>2014-4-1T4:30:59Z</time></trkpt>
<trkpt lat="46.31154598" lon="7.04692097"><ele></ele><time>2014-4-1T4:31:2Z</time></trkpt>
<trkpt lat="46.31157992" lon="7.04720998"><ele></ele><time>2014-4-1T4:31:5Z</time></trkpt>
<trkpt lat="46.31163399" lon="7.04754098"><ele></ele><time>2014-4-1T4:31:8Z</time></trkpt>
<trkpt lat="46.31169392" lon="7.04778800"><ele></ele><time>2014-4-1T4:31:11Z</time></trkpt>
<trkpt lat="46.31175393" lon="7.04794893"><ele></ele><time>2014-4-1T4:31:14Z</time></trkpt>
<trkpt lat="46.31181294" lon="7.04822897"><ele></ele><time>2014-4-1T4:31:17Z</time></trkpt>
<trkpt lat="46.31183599" lon="7.04844899"><ele></ele><time>2014-4-1T4:31:20Z</time></trkpt>
<trkpt lat="46.31186793" lon="7.04877396"><ele></ele><time>2014-4-1T4:31:23Z</time></trkpt>
<trkpt lat="46.31195594" lon="7.04906699"><ele></ele><time>2014-4-1T4:31:26Z</time></trkpt>
<trkpt lat="46.31209499" lon="7.04944795"><ele></ele><time>2014-4-1T4:31:29Z</time></trkpt>
<trkpt lat="46.31220899" lon="7.04974299"><ele></ele><time>2014-4-1T4:31:32Z</time></trkpt>
<trkpt lat="46.31235793" lon="7.05002999"><ele></ele><time>2014-4-1T4:31:35Z</time></trkpt>
<trkpt lat="46.31249900" lon="7.05029896"><ele></ele><time>2014-4-1T4:31:38Z</time></trkpt>
<trkpt lat="46.31265499" lon="7.05063692"><ele></ele><time>2014-4-1T4:31:41Z</time></trkpt>
<trkpt lat="46.31272498" lon="7.05083993"><ele></ele><time>2014-4-1T4:31:44Z</time></trkpt>
<trkpt lat="46.31279999" lon="7.05101796"><ele></ele><time>2014-4-1T4:31:47Z</time></trkpt>
<trkpt lat="46.31286898" lon="7.05119097"><ele></ele><time>2014-4-1T4:31:50Z</time></trkpt>
<trkpt lat="46.31297593" lon="7.05133094"><ele></ele><time>2014-4-1T4:31:53Z</time></trkpt>
<trkpt lat="46.31314793" lon="7.05145894"><ele></ele><time>2014-4-1T4:31:56Z</time></trkpt>
<trkpt lat="46.31328899" lon="7.05161895"><ele></ele><time>2014-4-1T4:31:59Z</time></trkpt>
<trkpt lat="46.31333493" lon="7.05184299"><ele></ele><time>2014-4-1T4:32:2Z</time></trkpt>
<trkpt lat="46.31339293" lon="7.05204399"><ele></ele><time>2014-4-1T4:32:5Z</time></trkpt>
<trkpt lat="46.31349100" lon="7.05227399"><ele></ele><time>2014-4-1T4:32:8Z</time></trkpt>
<trkpt lat="46.31359493" lon="7.05247298"><ele></ele><time>2014-4-1T4:32:11Z</time></trkpt>
<trkpt lat="46.31367993" lon="7.05273097"><ele></ele><time>2014-4-1T4:32:14Z</time></trkpt>
<trkpt lat="46.31373692" lon="7.05300892"><ele></ele><time>2014-4-1T4:32:17Z</time></trkpt>
<trkpt lat="46.31377799" lon="7.05322492"><ele></ele><time>2014-4-1T4:32:20Z</time></trkpt>
<trkpt lat="46.31383692" lon="7.05343598"><ele></ele><time>2014-4-1T4:32:23Z</time></trkpt>
<trkpt lat="46.31387598" lon="7.05368299"><ele></ele><time>2014-4-1T4:32:26Z</time></trkpt>
<trkpt lat="46.31387095" lon="7.05398893"><ele></ele><time>2014-4-1T4:32:29Z</time></trkpt>
<trkpt lat="46.31387992" lon="7.05432597"><ele></ele><time>2014-4-1T4:32:32Z</time></trkpt>
<trkpt lat="46.31394094" lon="7.05458899"><ele></ele><time>2014-4-1T4:32:35Z</time></trkpt>
<trkpt lat="46.31398595" lon="7.05484992"><ele></ele><time>2014-4-1T4:32:38Z</time></trkpt>
<trkpt lat="46.31405896" lon="7.05498696"><ele></ele><time>2014-4-1T4:32:41Z</time></trkpt>
<trkpt lat="46.31420396" lon="7.05507598"><ele></ele><time>2014-4-1T4:32:44Z</time></trkpt>
<trkpt lat="46.31432097" lon="7.05514396"><ele></ele><time>2014-4-1T4:32:47Z</time></trkpt>
<trkpt lat="46.31442692" lon="7.05528192"><ele></ele><time>2014-4-1T4:32:50Z</time></trkpt>
<trkpt lat="46.31452792" lon="7.05545099"><ele></ele><time>2014-4-1T4:32:53Z</time></trkpt>
<trkpt lat="46.31463295" lon="7.05562893"><ele></ele><time>2014-4-1T4:32:56Z</time></trkpt>
<trkpt lat="46.31472398" lon="7.05578098"><ele></ele><time>2014-4-1T4:32:59Z</time></trkpt>
<trkpt lat="46.31477796" lon="7.05585793"><ele></ele><time>2014-4-1T4:33:2Z</time></trkpt>
<trkpt lat="46.31487594" lon="7.05598692"><ele></ele><time>2014-4-1T4:33:5Z</time></trkpt>
<trkpt lat="46.31500997" lon="7.05614693"><ele></ele><time>2014-4-1T4:33:8Z</time></trkpt>
<trkpt lat="46.31511499" lon="7.05623494"><ele></ele><time>2014-4-1T4:33:11Z</time></trkpt>
<trkpt lat="46.31524592" lon="7.05635699"><ele></ele><time>2014-4-1T4:33:14Z</time></trkpt>
<trkpt lat="46.31534692" lon="7.05646293"><ele></ele><time>2014-4-1T4:33:17Z</time></trkpt>
<trkpt lat="46.31547298" lon="7.05657500"><ele></ele><time>2014-4-1T4:33:20Z</time></trkpt>
<trkpt lat="46.31560894" lon="7.05666997"><ele></ele><time>2014-4-1T4:33:23Z</time></trkpt>
<trkpt lat="46.31569494" lon="7.05675194"><ele></ele><time>2014-4-1T4:33:26Z</time></trkpt>
<trkpt lat="46.31579795" lon="7.05683593"><ele></ele><time>2014-4-1T4:33:29Z</time></trkpt>
<trkpt lat="46.31587196" lon="7.05690399"><ele></ele><time>2014-4-1T4:33:32Z</time></trkpt>
<trkpt lat="46.31601898" lon="7.05702594"><ele></ele><time>2014-4-1T4:33:35Z</time></trkpt>
<trkpt lat="46.31623297" lon="7.05720800"><ele></ele><time>2014-4-1T4:33:38Z</time></trkpt>
<trkpt lat="46.31638393" lon="7.05743599"><ele></ele><time>2014-4-1T4:33:41Z</time></trkpt>
<trkpt lat="46.31650798" lon="7.05777294"><ele></ele><time>2014-4-1T4:33:44Z</time></trkpt>
<trkpt lat="46.31659993" lon="7.05800294"><ele></ele><time>2014-4-1T4:33:47Z</time></trkpt>
<trkpt lat="46.31659197" lon="7.05824392"><ele></ele><time>2014-4-1T4:33:50Z</time></trkpt>
<trkpt lat="46.31657395" lon="7.05848699"><ele></ele><time>2014-4-1T4:33:53Z</time></trkpt>
<trkpt lat="46.31665098" lon="7.05857299"><ele></ele><time>2014-4-1T4:33:56Z</time></trkpt>
<trkpt lat="46.31681392" lon="7.05868397"><ele></ele><time>2014-4-1T4:33:59Z</time></trkpt>
<trkpt lat="46.31694996" lon="7.05881196"><ele></ele><time>2014-4-1T4:34:2Z</time></trkpt>
<trkpt lat="46.31711500" lon="7.05885094"><ele></ele><time>2014-4-1T4:34:5Z</time></trkpt>
<trkpt lat="46.31729898" lon="7.05890500"><ele></ele><time>2014-4-1T4:34:8Z</time></trkpt>
<trkpt lat="46.31744893" lon="7.05899293"><ele></ele><time>2014-4-1T4:34:11Z</time></trkpt>
<trkpt lat="46.31754197" lon="7.05910399"><ele></ele><time>2014-4-1T4:34:14Z</time></trkpt>
<trkpt lat="46.31766795" lon="7.05927699"><ele></ele><time>2014-4-1T4:34:17Z</time></trkpt>
<trkpt lat="46.31773098" lon="7.05940599"><ele></ele><time>2014-4-1T4:34:20Z</time></trkpt>
<trkpt lat="46.31783593" lon="7.05959299"><ele></ele><time>2014-4-1T4:34:23Z</time></trkpt>
<trkpt lat="46.31792494" lon="7.05976297"><ele></ele><time>2014-4-1T4:34:26Z</time></trkpt>
<trkpt lat="46.31795394" lon="7.06003094"><ele></ele><time>2014-4-1T4:34:29Z</time></trkpt>
<trkpt lat="46.31795092" lon="7.06022892"><ele></ele><time>2014-4-1T4:34:32Z</time></trkpt>
<trkpt lat="46.31796392" lon="7.06048298"><ele></ele><time>2014-4-1T4:34:35Z</time></trkpt>
<trkpt lat="46.31796492" lon="7.06074592"><ele></ele><time>2014-4-1T4:34:38Z</time></trkpt>
<trkpt lat="46.31798596" lon="7.06093996"><ele></ele><time>2014-4-1T4:34:41Z</time></trkpt>
<trkpt lat="46.31803500" lon="7.06115797"><ele></ele><time>2014-4-1T4:34:44Z</time></trkpt>
<trkpt lat="46.31812594" lon="7.06136995"><ele></ele><time>2014-4-1T4:34:47Z</time></trkpt>
<trkpt lat="46.31817698" lon="7.06159894"><ele></ele><time>2014-4-1T4:34:50Z</time></trkpt>
<trkpt lat="46.31817598" lon="7.06172694"><ele></ele><time>2014-4-1T4:34:53Z</time></trkpt>
<trkpt lat="46.31815997" lon="7.06163499"><ele></ele><time>2014-4-1T4:34:56Z</time></trkpt>
<trkpt lat="46.31814899" lon="7.06157397"><ele></ele><time>2014-4-1T4:34:59Z</time></trkpt>
<trkpt lat="46.31809996" lon="7.06164295"><ele></ele><time>2014-4-1T4:35:2Z</time></trkpt>
<trkpt lat="46.31809996" lon="7.06165192"><ele></ele><time>2014-4-1T4:35:5Z</time></trkpt>
<trkpt lat="46.31810297" lon="7.06166097"><ele></ele><time>2014-4-1T4:35:8Z</time></trkpt>
<trkpt lat="46.31811596" lon="7.06161998"><ele></ele><time>2014-4-1T4:35:11Z</time></trkpt>
<trkpt lat="46.31809996" lon="7.06154195"><ele></ele><time>2014-4-1T4:35:14Z</time></trkpt>
<trkpt lat="46.31809392" lon="7.06151295"><ele></ele><time>2014-4-1T4:35:17Z</time></trkpt>
<trkpt lat="46.31806400" lon="7.06136593"><ele></ele><time>2014-4-1T4:35:20Z</time></trkpt>
<trkpt lat="46.31802695" lon="7.06127398"><ele></ele><time>2014-4-1T4:35:23Z</time></trkpt>
<trkpt lat="46.31799200" lon="7.06120600"><ele></ele><time>2014-4-1T4:35:26Z</time></trkpt>
<trkpt lat="46.31798496" lon="7.06119192"><ele></ele><time>2014-4-1T4:35:29Z</time></trkpt>
<trkpt lat="46.31793693" lon="7.06108396"><ele></ele><time>2014-4-1T4:35:32Z</time></trkpt>
<trkpt lat="46.31792494" lon="7.06100299"><ele></ele><time>2014-4-1T4:35:35Z</time></trkpt>
<trkpt lat="46.31791497" lon="7.06089294"><ele></ele><time>2014-4-1T4:35:38Z</time></trkpt>
<trkpt lat="46.31790793" lon="7.06076595"><ele></ele><time>2014-4-1T4:35:41Z</time></trkpt>
<trkpt lat="46.31791295" lon="7.06063796"><ele></ele><time>2014-4-1T4:35:44Z</time></trkpt>
<trkpt lat="46.31790298" lon="7.06048792"><ele></ele><time>2014-4-1T4:35:47Z</time></trkpt>
<trkpt lat="46.31790197" lon="7.06030997"><ele></ele><time>2014-4-1T4:35:50Z</time></trkpt>
<trkpt lat="46.31789292" lon="7.06004100"><ele></ele><time>2014-4-1T4:35:53Z</time></trkpt>
<trkpt lat="46.31789493" lon="7.05990798"><ele></ele><time>2014-4-1T4:35:56Z</time></trkpt>
<trkpt lat="46.31782494" lon="7.05961998"><ele></ele><time>2014-4-1T4:35:59Z</time></trkpt>
<trkpt lat="46.31763694" lon="7.05927297"><ele></ele><time>2014-4-1T4:36:2Z</time></trkpt>
<trkpt lat="46.31758992" lon="7.05920499"><ele></ele><time>2014-4-1T4:36:5Z</time></trkpt>
<trkpt lat="46.31728096" lon="7.05893895"><ele></ele><time>2014-4-1T4:36:8Z</time></trkpt>
<trkpt lat="46.31693194" lon="7.05878899"><ele></ele><time>2014-4-1T4:36:11Z</time></trkpt>
<trkpt lat="46.31663698" lon="7.05857593"><ele></ele><time>2014-4-1T4:36:14Z</time></trkpt>
<trkpt lat="46.31654394" lon="7.05836697"><ele></ele><time>2014-4-1T4:36:17Z</time></trkpt>
<trkpt lat="46.31655492" lon="7.05827099"><ele></ele><time>2014-4-1T4:36:20Z</time></trkpt>
<trkpt lat="46.31651100" lon="7.05779993"><ele></ele><time>2014-4-1T4:36:23Z</time></trkpt>
<trkpt lat="46.31643799" lon="7.05758896"><ele></ele><time>2014-4-1T4:36:26Z</time></trkpt>
<trkpt lat="46.31618695" lon="7.05713298"><ele></ele><time>2014-4-1T4:36:29Z</time></trkpt>
<trkpt lat="46.31611395" lon="7.05706492"><ele></ele><time>2014-4-1T4:36:32Z</time></trkpt>
<trkpt lat="46.31578496" lon="7.05676393"><ele></ele><time>2014-4-1T4:36:35Z</time></trkpt>
<trkpt lat="46.31571396" lon="7.05669897"><ele></ele><time>2014-4-1T4:36:38Z</time></trkpt>
<trkpt lat="46.31531599" lon="7.05639093"><ele></ele><time>2014-4-1T4:36:41Z</time></trkpt>
<trkpt lat="46.31516495" lon="7.05626797"><ele></ele><time>2014-4-1T4:36:44Z</time></trkpt>
<trkpt lat="46.31475197" lon="7.05585793"><ele></ele><time>2014-4-1T4:36:47Z</time></trkpt>
<trkpt lat="46.31448895" lon="7.05538292"><ele></ele><time>2014-4-1T4:36:50Z</time></trkpt>
<trkpt lat="46.31444494" lon="7.05529299"><ele></ele><time>2014-4-1T4:36:53Z</time></trkpt>
<trkpt lat="46.31418996" lon="7.05507196"><ele></ele><time>2014-4-1T4:36:56Z</time></trkpt>
<trkpt lat="46.31395100" lon="7.05478295"><ele></ele><time>2014-4-1T4:36:59Z</time></trkpt>
<trkpt lat="46.31390800" lon="7.05445597"><ele></ele><time>2014-4-1T4:37:2Z</time></trkpt>
<trkpt lat="46.31387296" lon="7.05389195"><ele></ele><time>2014-4-1T4:37:5Z</time></trkpt>
<trkpt lat="46.31383399" lon="7.05352097"><ele></ele><time>2014-4-1T4:37:8Z</time></trkpt>
<trkpt lat="46.31369694" lon="7.05300800"><ele></ele><time>2014-4-1T4:37:11Z</time></trkpt>
<trkpt lat="46.31356694" lon="7.05248295"><ele></ele><time>2014-4-1T4:37:14Z</time></trkpt>
<trkpt lat="46.31342294" lon="7.05217299"><ele></ele><time>2014-4-1T4:37:17Z</time></trkpt>
<trkpt lat="46.31329796" lon="7.05173797"><ele></ele><time>2014-4-1T4:37:20Z</time></trkpt>
<trkpt lat="46.31311599" lon="7.05142499"><ele></ele><time>2014-4-1T4:37:23Z</time></trkpt>
<trkpt lat="46.31298297" lon="7.05133094"><ele></ele><time>2014-4-1T4:37:26Z</time></trkpt>
<trkpt lat="46.31275792" lon="7.05098796"><ele></ele><time>2014-4-1T4:37:29Z</time></trkpt>
<trkpt lat="46.31240093" lon="7.05019092"><ele></ele><time>2014-4-1T4:37:32Z</time></trkpt>
<trkpt lat="46.31228493" lon="7.04997593"><ele></ele><time>2014-4-1T4:37:35Z</time></trkpt>
<trkpt lat="46.31199399" lon="7.04925894"><ele></ele><time>2014-4-1T4:37:38Z</time></trkpt>
<trkpt lat="46.31185192" lon="7.04886499"><ele></ele><time>2014-4-1T4:37:41Z</time></trkpt>
<trkpt lat="46.31172594" lon="7.04818094"><ele></ele><time>2014-4-1T4:37:44Z</time></trkpt>
<trkpt lat="46.31159199" lon="7.04759999"><ele></ele><time>2014-4-1T4:37:47Z</time></trkpt>
<trkpt lat="46.31150692" lon="7.04698694"><ele></ele><time>2014-4-1T4:37:50Z</time></trkpt>
<trkpt lat="46.31143592" lon="7.04631597"><ele></ele><time>2014-4-1T4:37:53Z</time></trkpt>
<trkpt lat="46.31144598" lon="7.04576192"><ele></ele><time>2014-4-1T4:37:56Z</time></trkpt>
<trkpt lat="46.31150692" lon="7.04489599"><ele></ele><time>2014-4-1T4:37:59Z</time></trkpt>
<trkpt lat="46.31156492" lon="7.04449299"><ele></ele><time>2014-4-1T4:38:2Z</time></trkpt>
<trkpt lat="46.31153994" lon="7.04376795"><ele></ele><time>2014-4-1T4:38:5Z</time></trkpt>
<trkpt lat="46.31149795" lon="7.04313898"><ele></ele><time>2014-4-1T4:38:8Z</time></trkpt>
<trkpt lat="46.31149594" lon="7.04253498"><ele></ele><time>2014-4-1T4:38:11Z</time></trkpt>
<trkpt lat="46.31147197" lon="7.04194799"><ele></ele><time>2014-4-1T4:38:14Z</time></trkpt>
<trkpt lat="46.31146593" lon="7.04133393"><ele></ele><time>2014-4-1T4:38:17Z</time></trkpt>
<trkpt lat="46.31136593" lon="7.04083999"><ele></ele><time>2014-4-1T4:38:20Z</time></trkpt>
<trkpt lat="46.31111892" lon="7.04009098"><ele></ele><time>2014-4-1T4:38:23Z</time></trkpt>
<trkpt lat="46.31103292" lon="7.03985796"><ele></ele><time>2014-4-1T4:38:26Z</time></trkpt>
<trkpt lat="46.31091599" lon="7.03931700"><ele></ele><time>2014-4-1T4:38:29Z</time></trkpt>
<trkpt lat="46.31089697" lon="7.03922899"><ele></ele><time>2014-4-1T4:38:32Z</time></trkpt>
<trkpt lat="46.31080200" lon="7.03891500"><ele></ele><time>2014-4-1T4:38:35Z</time></trkpt>
<trkpt lat="46.31078096" lon="7.03868592"><ele></ele><time>2014-4-1T4:38:38Z</time></trkpt>
<trkpt lat="46.31075892" lon="7.03812894"><ele></ele><time>2014-4-1T4:38:41Z</time></trkpt>
<trkpt lat="46.31077996" lon="7.03757993"><ele></ele><time>2014-4-1T4:38:44Z</time></trkpt>
<trkpt lat="46.31081692" lon="7.03730995"><ele></ele><time>2014-4-1T4:38:47Z</time></trkpt>
<trkpt lat="46.31084399" lon="7.03684199"><ele></ele><time>2014-4-1T4:38:50Z</time></trkpt>
<trkpt lat="46.31088599" lon="7.03662096"><ele></ele><time>2014-4-1T4:38:53Z</time></trkpt>
<trkpt lat="46.31093393" lon="7.03647997"><ele></ele><time>2014-4-1T4:38:56Z</time></trkpt>
<trkpt lat="46.31102596" lon="7.03635500"><ele></ele><time>2014-4-1T4:38:59Z</time></trkpt>
<trkpt lat="46.31118095" lon="7.03611796"><ele></ele><time>2014-4-1T4:39:2Z</time></trkpt>
<trkpt lat="46.31141698" lon="7.03582493"><ele></ele><time>2014-4-1T4:39:5Z</time></trkpt>
<trkpt lat="46.31161194" lon="7.03558797"><ele></ele><time>2014-4-1T4:39:8Z</time></trkpt>
<trkpt lat="46.31184194" lon="7.03521799"><ele></ele><time>2014-4-1T4:39:11Z</time></trkpt>
<trkpt lat="46.31198997" lon="7.03499495"><ele></ele><time>2014-4-1T4:39:14Z</time></trkpt>
<trkpt lat="46.31204294" lon="7.03491398"><ele></ele><time>2014-4-1T4:39:17Z</time></trkpt>
<trkpt lat="46.31230496" lon="7.03457200"><ele></ele><time>2014-4-1T4:39:20Z</time></trkpt>
<trkpt lat="46.31267494" lon="7.03412499"><ele></ele><time>2014-4-1T4:39:23Z</time></trkpt>
<trkpt lat="46.31301994" lon="7.03369592"><ele></ele><time>2014-4-1T4:39:26Z</time></trkpt>
<trkpt lat="46.31337197" lon="7.03321095"><ele></ele><time>2014-4-1T4:39:29Z</time></trkpt>
<trkpt lat="46.31349494" lon="7.03301892"><ele></ele><time>2014-4-1T4:39:32Z</time></trkpt>
<trkpt lat="46.31359393" lon="7.03277794"><ele></ele><time>2014-4-1T4:39:35Z</time></trkpt>
<trkpt lat="46.31368998" lon="7.03251198"><ele></ele><time>2014-4-1T4:39:38Z</time></trkpt>
<trkpt lat="46.31386994" lon="7.03213798"><ele></ele><time>2014-4-1T4:39:41Z</time></trkpt>
<trkpt lat="46.31408896" lon="7.03179197"><ele></ele><time>2014-4-1T4:39:44Z</time></trkpt>
<trkpt lat="46.31434696" lon="7.03159198"><ele></ele><time>2014-4-1T4:39:47Z</time></trkpt>
<trkpt lat="46.31442692" lon="7.03157396"><ele></ele><time>2014-4-1T4:39:50Z</time></trkpt>
<trkpt lat="46.31477192" lon="7.03166893"><ele></ele><time>2014-4-1T4:39:53Z</time></trkpt>
<trkpt lat="46.31493897" lon="7.03181695"><ele></ele><time>2014-4-1T4:39:56Z</time></trkpt>
<trkpt lat="46.31543996" lon="7.03240394"><ele></ele><time>2014-4-1T4:39:59Z</time></trkpt>
<trkpt lat="46.31578797" lon="7.03278892"><ele></ele><time>2014-4-1T4:40:2Z</time></trkpt>
<trkpt lat="46.31587096" lon="7.03289093"><ele></ele><time>2014-4-1T4:40:5Z</time></trkpt>
<trkpt lat="46.31595000" lon="7.03298899"><ele></ele><time>2014-4-1T4:40:8Z</time></trkpt>
<trkpt lat="46.31625895" lon="7.03335998"><ele></ele><time>2014-4-1T4:40:11Z</time></trkpt>
<trkpt lat="46.31635300" lon="7.03356500"><ele></ele><time>2014-4-1T4:40:14Z</time></trkpt>
<trkpt lat="46.31646398" lon="7.03387798"><ele></ele><time>2014-4-1T4:40:17Z</time></trkpt>
<trkpt lat="46.31671996" lon="7.03431895"><ele></ele><time>2014-4-1T4:40:20Z</time></trkpt>
<trkpt lat="46.31684493" lon="7.03445893"><ele></ele><time>2014-4-1T4:40:23Z</time></trkpt>
<trkpt lat="46.31723897" lon="7.03480493"><ele></ele><time>2014-4-1T4:40:26Z</time></trkpt>
<trkpt lat="46.31747693" lon="7.03504398"><ele></ele><time>2014-4-1T4:40:29Z</time></trkpt>
<trkpt lat="46.31770399" lon="7.03527692"><ele></ele><time>2014-4-1T4:40:32Z</time></trkpt>
<trkpt lat="46.31819794" lon="7.03579995"><ele></ele><time>2014-4-1T4:40:35Z</time></trkpt>
<trkpt lat="46.31859600" lon="7.03623195"><ele></ele><time>2014-4-1T4:40:38Z</time></trkpt>
<trkpt lat="46.31880395" lon="7.03645499"><ele></ele><time>2014-4-1T4:40:41Z</time></trkpt>
<trkpt lat="46.31905499" lon="7.03685699"><ele></ele><time>2014-4-1T4:40:44Z</time></trkpt>
<trkpt lat="46.31939596" lon="7.03717793"><ele></ele><time>2014-4-1T4:40:47Z</time></trkpt>
<trkpt lat="46.31968799" lon="7.03739192"><ele></ele><time>2014-4-1T4:40:50Z</time></trkpt>
<trkpt lat="46.31974792" lon="7.03742696"><ele></ele><time>2014-4-1T4:40:53Z</time></trkpt>
<trkpt lat="46.31991397" lon="7.03735597"><ele></ele><time>2014-4-1T4:40:56Z</time></trkpt>
<trkpt lat="46.31988597" lon="7.03709898"><ele></ele><time>2014-4-1T4:40:59Z</time></trkpt>
<trkpt lat="46.31968397" lon="7.03694693"><ele></ele><time>2014-4-1T4:41:2Z</time></trkpt>
<trkpt lat="46.31942195" lon="7.03665197"><ele></ele><time>2014-4-1T4:41:5Z</time></trkpt>
<trkpt lat="46.31947098" lon="7.03638693"><ele></ele><time>2014-4-1T4:41:8Z</time></trkpt>
<trkpt lat="46.31961197" lon="7.03636900"><ele></ele><time>2014-4-1T4:41:11Z</time></trkpt>
<trkpt lat="46.31976997" lon="7.03647000"><ele></ele><time>2014-4-1T4:41:14Z</time></trkpt>
<trkpt lat="46.31998496" lon="7.03674300"><ele></ele><time>2014-4-1T4:41:17Z</time></trkpt>
<trkpt lat="46.32024497" lon="7.03711297"><ele></ele><time>2014-4-1T4:41:20Z</time></trkpt>
<trkpt lat="46.32053297" lon="7.03757297"><ele></ele><time>2014-4-1T4:41:23Z</time></trkpt>
<trkpt lat="46.32077998" lon="7.03776198"><ele></ele><time>2014-4-1T4:41:26Z</time></trkpt>
<trkpt lat="46.32095894" lon="7.03781496"><ele></ele><time>2014-4-1T4:41:29Z</time></trkpt>
<trkpt lat="46.32128994" lon="7.03797698"><ele></ele><time>2014-4-1T4:41:32Z</time></trkpt>
<trkpt lat="46.32133696" lon="7.03801294"><ele></ele><time>2014-4-1T4:41:35Z</time></trkpt>
<trkpt lat="46.32141198" lon="7.03796097"><ele></ele><time>2014-4-1T4:41:38Z</time></trkpt>
<trkpt lat="46.32137996" lon="7.03775193"><ele></ele><time>2014-4-1T4:41:41Z</time></trkpt>
<trkpt lat="46.32123596" lon="7.03769392"><ele></ele><time>2014-4-1T4:41:44Z</time></trkpt>
<trkpt lat="46.32098098" lon="7.03764698"><ele></ele><time>2014-4-1T4:41:47Z</time></trkpt>
<trkpt lat="46.32076297" lon="7.03746493"><ele></ele><time>2014-4-1T4:41:50Z</time></trkpt>
<trkpt lat="46.32063397" lon="7.03711993"><ele></ele><time>2014-4-1T4:41:53Z</time></trkpt>
<trkpt lat="46.32060899" lon="7.03697098"><ele></ele><time>2014-4-1T4:41:56Z</time></trkpt>
<trkpt lat="46.32056298" lon="7.03667192"><ele></ele><time>2014-4-1T4:41:59Z</time></trkpt>
<trkpt lat="46.32060598" lon="7.03624293"><ele></ele><time>2014-4-1T4:42:2Z</time></trkpt>
<trkpt lat="46.32056792" lon="7.03605794"><ele></ele><time>2014-4-1T4:42:5Z</time></trkpt>
<trkpt lat="46.32047296" lon="7.03560792"><ele></ele><time>2014-4-1T4:42:8Z</time></trkpt>
<trkpt lat="46.32022695" lon="7.03478700"><ele></ele><time>2014-4-1T4:42:11Z</time></trkpt>
<trkpt lat="46.32012293" lon="7.03448894"><ele></ele><time>2014-4-1T4:42:14Z</time></trkpt>
<trkpt lat="46.32000692" lon="7.03429699"><ele></ele><time>2014-4-1T4:42:17Z</time></trkpt>
<trkpt lat="46.31973392" lon="7.03398099"><ele></ele><time>2014-4-1T4:42:20Z</time></trkpt>
<trkpt lat="46.31952999" lon="7.03373993"><ele></ele><time>2014-4-1T4:42:23Z</time></trkpt>
<trkpt lat="46.31932095" lon="7.03355092"><ele></ele><time>2014-4-1T4:42:26Z</time></trkpt>
<trkpt lat="46.31915499" lon="7.03335998"><ele></ele><time>2014-4-1T4:42:29Z</time></trkpt>
<trkpt lat="46.31895097" lon="7.03298698"><ele></ele><time>2014-4-1T4:42:32Z</time></trkpt>
<trkpt lat="46.31877495" lon="7.03252899"><ele></ele><time>2014-4-1T4:42:35Z</time></trkpt>
<trkpt lat="46.31872994" lon="7.03216396"><ele></ele><time>2014-4-1T4:42:38Z</time></trkpt>
<trkpt lat="46.31853598" lon="7.03194000"><ele></ele><time>2014-4-1T4:42:41Z</time></trkpt>
<trkpt lat="46.31846499" lon="7.03188593"><ele></ele><time>2014-4-1T4:42:44Z</time></trkpt>
<trkpt lat="46.31834798" lon="7.03178594"><ele></ele><time>2014-4-1T4:42:47Z</time></trkpt>
<trkpt lat="46.31811999" lon="7.03166792"><ele></ele><time>2014-4-1T4:42:50Z</time></trkpt>
<trkpt lat="46.31798294" lon="7.03155695"><ele></ele><time>2014-4-1T4:42:53Z</time></trkpt>
<trkpt lat="46.31800499" lon="7.03146399"><ele></ele><time>2014-4-1T4:42:56Z</time></trkpt>
<trkpt lat="46.31803399" lon="7.03140599"><ele></ele><time>2014-4-1T4:42:59Z</time></trkpt>
<trkpt lat="46.31801597" lon="7.03140196"><ele></ele><time>2014-4-1T4:43:2Z</time></trkpt>
<trkpt lat="46.31805000" lon="7.03129199"><ele></ele><time>2014-4-1T4:43:5Z</time></trkpt>
<trkpt lat="46.31815192" lon="7.03128898"><ele></ele><time>2014-4-1T4:43:8Z</time></trkpt>
<trkpt lat="46.31838494" lon="7.03148595"><ele></ele><time>2014-4-1T4:43:11Z</time></trkpt>
<trkpt lat="46.31842199" lon="7.03156399"><ele></ele><time>2014-4-1T4:43:14Z</time></trkpt>
<trkpt lat="46.31854998" lon="7.03181293"><ele></ele><time>2014-4-1T4:43:17Z</time></trkpt>
<trkpt lat="46.31889992" lon="7.03220596"><ele></ele><time>2014-4-1T4:43:20Z</time></trkpt>
<trkpt lat="46.31898098" lon="7.03226597"><ele></ele><time>2014-4-1T4:43:23Z</time></trkpt>
<trkpt lat="46.31928893" lon="7.03253595"><ele></ele><time>2014-4-1T4:43:26Z</time></trkpt>
<trkpt lat="46.31967793" lon="7.03285597"><ele></ele><time>2014-4-1T4:43:29Z</time></trkpt>
<trkpt lat="46.31975396" lon="7.03292395"><ele></ele><time>2014-4-1T4:43:32Z</time></trkpt>
<trkpt lat="46.31999996" lon="7.03309393"><ele></ele><time>2014-4-1T4:43:35Z</time></trkpt>
<trkpt lat="46.32011899" lon="7.03320893"><ele></ele><time>2014-4-1T4:43:38Z</time></trkpt>
<trkpt lat="46.32023994" lon="7.03333098"><ele></ele><time>2014-4-1T4:43:41Z</time></trkpt>
<trkpt lat="46.32030498" lon="7.03340096"><ele></ele><time>2014-4-1T4:43:44Z</time></trkpt>
<trkpt lat="46.32055292" lon="7.03358897"><ele></ele><time>2014-4-1T4:43:47Z</time></trkpt>
<trkpt lat="46.32070899" lon="7.03379693"><ele></ele><time>2014-4-1T4:43:50Z</time></trkpt>
<trkpt lat="46.32102197" lon="7.03413798"><ele></ele><time>2014-4-1T4:43:53Z</time></trkpt>
<trkpt lat="46.32146797" lon="7.03475992"><ele></ele><time>2014-4-1T4:43:56Z</time></trkpt>
<trkpt lat="46.32169194" lon="7.03532394"><ele></ele><time>2014-4-1T4:43:59Z</time></trkpt>
<trkpt lat="46.32172496" lon="7.03544397"><ele></ele><time>2014-4-1T4:44:2Z</time></trkpt>
<trkpt lat="46.32187097" lon="7.03574295"><ele></ele><time>2014-4-1T4:44:5Z</time></trkpt>
<trkpt lat="46.32200693" lon="7.03585292"><ele></ele><time>2014-4-1T4:44:8Z</time></trkpt>
<trkpt lat="46.32216099" lon="7.03620396"><ele></ele><time>2014-4-1T4:44:11Z</time></trkpt>
<trkpt lat="46.32232192" lon="7.03611595"><ele></ele><time>2014-4-1T4:44:14Z</time></trkpt>
<trkpt lat="46.32232100" lon="7.03578595"><ele></ele><time>2014-4-1T4:44:17Z</time></trkpt>
<trkpt lat="46.32222092" lon="7.03557800"><ele></ele><time>2014-4-1T4:44:20Z</time></trkpt>
<trkpt lat="46.32203098" lon="7.03508598"><ele></ele><time>2014-4-1T4:44:23Z</time></trkpt>
<trkpt lat="46.32201296" lon="7.03485992"><ele></ele><time>2014-4-1T4:44:26Z</time></trkpt>
<trkpt lat="46.32200693" lon="7.03465800"><ele></ele><time>2014-4-1T4:44:29Z</time></trkpt>
<trkpt lat="46.32186192" lon="7.03383096"><ele></ele><time>2014-4-1T4:44:32Z</time></trkpt>
<trkpt lat="46.32184298" lon="7.03368997"><ele></ele><time>2014-4-1T4:44:35Z</time></trkpt>
<trkpt lat="46.32164693" lon="7.03322494"><ele></ele><time>2014-4-1T4:44:38Z</time></trkpt>
<trkpt lat="46.32135792" lon="7.03269697"><ele></ele><time>2014-4-1T4:44:41Z</time></trkpt>
<trkpt lat="46.32128097" lon="7.03212499"><ele></ele><time>2014-4-1T4:44:44Z</time></trkpt>
<trkpt lat="46.32129195" lon="7.03200596"><ele></ele><time>2014-4-1T4:44:47Z</time></trkpt>
<trkpt lat="46.32129799" lon="7.03178292"><ele></ele><time>2014-4-1T4:44:50Z</time></trkpt>
<trkpt lat="46.32132992" lon="7.03157597"><ele></ele><time>2014-4-1T4:44:53Z</time></trkpt>
<trkpt lat="46.32114996" lon="7.03101899"><ele></ele><time>2014-4-1T4:44:56Z</time></trkpt>
<trkpt lat="46.32108995" lon="7.03081397"><ele></ele><time>2014-4-1T4:44:59Z</time></trkpt>
<trkpt lat="46.32086598" lon="7.03034098"><ele></ele><time>2014-4-1T4:45:2Z</time></trkpt>
<trkpt lat="46.32081795" lon="7.03023797"><ele></ele><time>2014-4-1T4:45:5Z</time></trkpt>
<trkpt lat="46.32047798" lon="7.02997494"><ele></ele><time>2014-4-1T4:45:8Z</time></trkpt>
<trkpt lat="46.32026098" lon="7.02985098"><ele></ele><time>2014-4-1T4:45:11Z</time></trkpt>
<trkpt lat="46.32016400" lon="7.02964696"><ele></ele><time>2014-4-1T4:45:14Z</time></trkpt>
<trkpt lat="46.32031596" lon="7.02964394"><ele></ele><time>2014-4-1T4:45:17Z</time></trkpt>
<trkpt lat="46.32053398" lon="7.02978996"><ele></ele><time>2014-4-1T4:45:20Z</time></trkpt>
<trkpt lat="46.32080094" lon="7.02993899"><ele></ele><time>2014-4-1T4:45:23Z</time></trkpt>
<trkpt lat="46.32119992" lon="7.03020394"><ele></ele><time>2014-4-1T4:45:26Z</time></trkpt>
<trkpt lat="46.32144693" lon="7.03035297"><ele></ele><time>2014-4-1T4:45:29Z</time></trkpt>
<trkpt lat="46.32172999" lon="7.03077097"><ele></ele><time>2014-4-1T4:45:32Z</time></trkpt>
<trkpt lat="46.32187994" lon="7.03120893"><ele></ele><time>2014-4-1T4:45:35Z</time></trkpt>
<trkpt lat="46.32214992" lon="7.03180698"><ele></ele><time>2014-4-1T4:45:38Z</time></trkpt>
<trkpt lat="46.32247397" lon="7.03222792"><ele></ele><time>2014-4-1T4:45:41Z</time></trkpt>
<trkpt lat="46.32282894" lon="7.03241693"><ele></ele><time>2014-4-1T4:45:44Z</time></trkpt>
<trkpt lat="46.32309993" lon="7.03261499"><ele></ele><time>2014-4-1T4:45:47Z</time></trkpt>
<trkpt lat="46.32324100" lon="7.03282597"><ele></ele><time>2014-4-1T4:45:50Z</time></trkpt>
<trkpt lat="46.32337896" lon="7.03288799"><ele></ele><time>2014-4-1T4:45:53Z</time></trkpt>
<trkpt lat="46.32342196" lon="7.03274198"><ele></ele><time>2014-4-1T4:45:56Z</time></trkpt>
<trkpt lat="46.32334996" lon="7.03241299"><ele></ele><time>2014-4-1T4:45:59Z</time></trkpt>
<trkpt lat="46.32333194" lon="7.03183397"><ele></ele><time>2014-4-1T4:46:2Z</time></trkpt>
<trkpt lat="46.32323697" lon="7.03086594"><ele></ele><time>2014-4-1T4:46:5Z</time></trkpt>
<trkpt lat="46.32304293" lon="7.03018198"><ele></ele><time>2014-4-1T4:46:8Z</time></trkpt>
<trkpt lat="46.32300597" lon="7.03007293"><ele></ele><time>2014-4-1T4:46:11Z</time></trkpt>
<trkpt lat="46.32279198" lon="7.02950195"><ele></ele><time>2014-4-1T4:46:14Z</time></trkpt>
<trkpt lat="46.32259400" lon="7.02914095"><ele></ele><time>2014-4-1T4:46:17Z</time></trkpt>
<trkpt lat="46.32245092" lon="7.02873996"><ele></ele><time>2014-4-1T4:46:20Z</time></trkpt>
<trkpt lat="46.32222997" lon="7.02815993"><ele></ele><time>2014-4-1T4:46:23Z</time></trkpt>
<trkpt lat="46.32189997" lon="7.02745694"><ele></ele><time>2014-4-1T4:46:26Z</time></trkpt>
<trkpt lat="46.32155799" lon="7.02687892"><ele></ele><time>2014-4-1T4:46:29Z</time></trkpt>
<trkpt lat="46.32150100" lon="7.02679393"><ele></ele><time>2014-4-1T4:46:32Z</time></trkpt>
<trkpt lat="46.32122498" lon="7.02659192"><ele></ele><time>2014-4-1T4:46:35Z</time></trkpt>
<trkpt lat="46.32115197" lon="7.02659293"><ele></ele><time>2014-4-1T4:46:38Z</time></trkpt>
<trkpt lat="46.32078996" lon="7.02677599"><ele></ele><time>2014-4-1T4:46:41Z</time></trkpt>
<trkpt lat="46.32052300" lon="7.02690398"><ele></ele><time>2014-4-1T4:46:44Z</time></trkpt>
<trkpt lat="46.32034698" lon="7.02665697"><ele></ele><time>2014-4-1T4:46:47Z</time></trkpt>
<trkpt lat="46.32019996" lon="7.02643795"><ele></ele><time>2014-4-1T4:46:50Z</time></trkpt>
<trkpt lat="46.31965597" lon="7.02592196"><ele></ele><time>2014-4-1T4:46:53Z</time></trkpt>
<trkpt lat="46.31948993" lon="7.02580797"><ele></ele><time>2014-4-1T4:46:56Z</time></trkpt>
<trkpt lat="46.31910696" lon="7.02576798"><ele></ele><time>2014-4-1T4:46:59Z</time></trkpt>
<trkpt lat="46.31901794" lon="7.02574393"><ele></ele><time>2014-4-1T4:47:2Z</time></trkpt>
<trkpt lat="46.31885500" lon="7.02555894"><ele></ele><time>2014-4-1T4:47:5Z</time></trkpt>
<trkpt lat="46.31869297" lon="7.02504295"><ele></ele><time>2014-4-1T4:47:8Z</time></trkpt>
<trkpt lat="46.31806592" lon="7.02385599"><ele></ele><time>2014-4-1T4:47:11Z</time></trkpt>
<trkpt lat="46.31791899" lon="7.02359598"><ele></ele><time>2014-4-1T4:47:14Z</time></trkpt>
<trkpt lat="46.31783492" lon="7.02340898"><ele></ele><time>2014-4-1T4:47:17Z</time></trkpt>
<trkpt lat="46.31764993" lon="7.02296893"><ele></ele><time>2014-4-1T4:47:20Z</time></trkpt>
<trkpt lat="46.31753099" lon="7.02260197"><ele></ele><time>2014-4-1T4:47:23Z</time></trkpt>
<trkpt lat="46.31727300" lon="7.02197894"><ele></ele><time>2014-4-1T4:47:26Z</time></trkpt>
<trkpt lat="46.31717493" lon="7.02178599"><ele></ele><time>2014-4-1T4:47:29Z</time></trkpt>
<trkpt lat="46.31667193" lon="7.02095099"><ele></ele><time>2014-4-1T4:47:32Z</time></trkpt>
<trkpt lat="46.31638695" lon="7.02050499"><ele></ele><time>2014-4-1T4:47:35Z</time></trkpt>
<trkpt lat="46.31606399" lon="7.01961198"><ele></ele><time>2014-4-1T4:47:38Z</time></trkpt>
<trkpt lat="46.31562696" lon="7.01861395"><ele></ele><time>2014-4-1T4:47:41Z</time></trkpt>
<trkpt lat="46.31547298" lon="7.01822997"><ele></ele><time>2014-4-1T4:47:44Z</time></trkpt>
<trkpt lat="46.31521993" lon="7.01791096"><ele></ele><time>2014-4-1T4:47:47Z</time></trkpt>
<trkpt lat="46.31510695" lon="7.01785597"><ele></ele><time>2014-4-1T4:47:50Z</time></trkpt>
<trkpt lat="46.31454997" lon="7.01758096"><ele></ele><time>2014-4-1T4:47:53Z</time></trkpt>
<trkpt lat="46.31435693" lon="7.01743897"><ele></ele><time>2014-4-1T4:47:56Z</time></trkpt>
<trkpt lat="46.31404496" lon="7.01727494"><ele></ele><time>2014-4-1T4:47:59Z</time></trkpt>
<trkpt lat="46.31356694" lon="7.01711300"><ele></ele><time>2014-4-1T4:48:2Z</time></trkpt>
<trkpt lat="46.31305992" lon="7.01687696"><ele></ele><time>2014-4-1T4:48:5Z</time></trkpt>
<trkpt lat="46.31283595" lon="7.01674897"><ele></ele><time>2014-4-1T4:48:8Z</time></trkpt>
<trkpt lat="46.31238593" lon="7.01669793"><ele></ele><time>2014-4-1T4:48:11Z</time></trkpt>
<trkpt lat="46.31228099" lon="7.01670798"><ele></ele><time>2014-4-1T4:48:14Z</time></trkpt>
<trkpt lat="46.31204998" lon="7.01673196"><ele></ele><time>2014-4-1T4:48:17Z</time></trkpt>
<trkpt lat="46.31168696" lon="7.01702893"><ele></ele><time>2014-4-1T4:48:20Z</time></trkpt>
<trkpt lat="46.31140994" lon="7.01713496"><ele></ele><time>2014-4-1T4:48:23Z</time></trkpt>
<trkpt lat="46.31121992" lon="7.01725792"><ele></ele><time>2014-4-1T4:48:26Z</time></trkpt>
<trkpt lat="46.31102395" lon="7.01747392"><ele></ele><time>2014-4-1T4:48:29Z</time></trkpt>
<trkpt lat="46.31076294" lon="7.01775195"><ele></ele><time>2014-4-1T4:48:32Z</time></trkpt>
<trkpt lat="46.31053495" lon="7.01827599"><ele></ele><time>2014-4-1T4:48:35Z</time></trkpt>
<trkpt lat="46.31021292" lon="7.01873599"><ele></ele><time>2014-4-1T4:48:38Z</time></trkpt>
<trkpt lat="46.30993992" lon="7.01894595"><ele></ele><time>2014-4-1T4:48:41Z</time></trkpt>
<trkpt lat="46.30974697" lon="7.01935994"><ele></ele><time>2014-4-1T4:48:44Z</time></trkpt>
<trkpt lat="46.30965494" lon="7.01956093"><ele></ele><time>2014-4-1T4:48:47Z</time></trkpt>
<trkpt lat="46.30948495" lon="7.01966898"><ele></ele><time>2014-4-1T4:48:50Z</time></trkpt>
<trkpt lat="46.30941597" lon="7.01954492"><ele></ele><time>2014-4-1T4:48:53Z</time></trkpt>
<trkpt lat="46.30921799" lon="7.01927092"><ele></ele><time>2014-4-1T4:48:56Z</time></trkpt>
<trkpt lat="46.30910299" lon="7.01888996"><ele></ele><time>2014-4-1T4:48:59Z</time></trkpt>
<trkpt lat="46.30902797" lon="7.01872299"><ele></ele><time>2014-4-1T4:49:2Z</time></trkpt>
<trkpt lat="46.30914892" lon="7.01836894"><ele></ele><time>2014-4-1T4:49:5Z</time></trkpt>
<trkpt lat="46.30924095" lon="7.01815596"><ele></ele><time>2014-4-1T4:49:8Z</time></trkpt>
<trkpt lat="46.30971394" lon="7.01769194"><ele></ele><time>2014-4-1T4:49:11Z</time></trkpt>
<trkpt lat="46.30990497" lon="7.01755095"><ele></ele><time>2014-4-1T4:49:14Z</time></trkpt>
<trkpt lat="46.31009792" lon="7.01694394"><ele></ele><time>2014-4-1T4:49:17Z</time></trkpt>
<trkpt lat="46.31011695" lon="7.01669793"><ele></ele><time>2014-4-1T4:49:20Z</time></trkpt>
<trkpt lat="46.31026799" lon="7.01580592"><ele></ele><time>2014-4-1T4:49:23Z</time></trkpt>
<trkpt lat="46.31030998" lon="7.01559395"><ele></ele><time>2014-4-1T4:49:26Z</time></trkpt>
<trkpt lat="46.31032792" lon="7.01517795"><ele></ele><time>2014-4-1T4:49:29Z</time></trkpt>
<trkpt lat="46.31039296" lon="7.01481200"><ele></ele><time>2014-4-1T4:49:32Z</time></trkpt>
<trkpt lat="46.31053193" lon="7.01438092"><ele></ele><time>2014-4-1T4:49:35Z</time></trkpt>
<trkpt lat="46.31075598" lon="7.01426692"><ele></ele><time>2014-4-1T4:49:38Z</time></trkpt>
<trkpt lat="46.31094994" lon="7.01431495"><ele></ele><time>2014-4-1T4:49:41Z</time></trkpt>
<trkpt lat="46.31117499" lon="7.01427899"><ele></ele><time>2014-4-1T4:49:44Z</time></trkpt>
<trkpt lat="46.31115295" lon="7.01405394"><ele></ele><time>2014-4-1T4:49:47Z</time></trkpt>
<trkpt lat="46.31097995" lon="7.01398998"><ele></ele><time>2014-4-1T4:49:50Z</time></trkpt>
<trkpt lat="46.31083000" lon="7.01391798"><ele></ele><time>2014-4-1T4:49:53Z</time></trkpt>
<trkpt lat="46.31064299" lon="7.01360098"><ele></ele><time>2014-4-1T4:49:56Z</time></trkpt>
<trkpt lat="46.31062900" lon="7.01352295"><ele></ele><time>2014-4-1T4:49:59Z</time></trkpt>
<trkpt lat="46.31060394" lon="7.01321592"><ele></ele><time>2014-4-1T4:50:2Z</time></trkpt>
<trkpt lat="46.31064392" lon="7.01268199"><ele></ele><time>2014-4-1T4:50:5Z</time></trkpt>
<trkpt lat="46.31080594" lon="7.01172997"><ele></ele><time>2014-4-1T4:50:8Z</time></trkpt>
<trkpt lat="46.31100300" lon="7.01099798"><ele></ele><time>2014-4-1T4:50:11Z</time></trkpt>
<trkpt lat="46.31110693" lon="7.01060797"><ele></ele><time>2014-4-1T4:50:14Z</time></trkpt>
<trkpt lat="46.31131497" lon="7.00987497"><ele></ele><time>2014-4-1T4:50:17Z</time></trkpt>
<trkpt lat="46.31146492" lon="7.00930299"><ele></ele><time>2014-4-1T4:50:20Z</time></trkpt>
<trkpt lat="46.31149594" lon="7.00918900"><ele></ele><time>2014-4-1T4:50:23Z</time></trkpt>
<trkpt lat="46.31155998" lon="7.00848894"><ele></ele><time>2014-4-1T4:50:26Z</time></trkpt>
<trkpt lat="46.31147699" lon="7.00806892"><ele></ele><time>2014-4-1T4:50:29Z</time></trkpt>
<trkpt lat="46.31132293" lon="7.00767699"><ele></ele><time>2014-4-1T4:50:32Z</time></trkpt>
<trkpt lat="46.31128798" lon="7.00760792"><ele></ele><time>2014-4-1T4:50:35Z</time></trkpt>
<trkpt lat="46.31128698" lon="7.00760993"><ele></ele><time>2014-4-1T4:50:38Z</time></trkpt>
<trkpt lat="46.31123492" lon="7.00762100"><ele></ele><time>2014-4-1T4:50:41Z</time></trkpt>
<trkpt lat="46.31107793" lon="7.00746593"><ele></ele><time>2014-4-1T4:50:44Z</time></trkpt>
<trkpt lat="46.31076897" lon="7.00713392"><ele></ele><time>2014-4-1T4:50:47Z</time></trkpt>
<trkpt lat="46.31065297" lon="7.00700392"><ele></ele><time>2014-4-1T4:50:50Z</time></trkpt>
<trkpt lat="46.31034099" lon="7.00691298"><ele></ele><time>2014-4-1T4:50:53Z</time></trkpt>
<trkpt lat="46.31020999" lon="7.00691398"><ele></ele><time>2014-4-1T4:50:56Z</time></trkpt>
<trkpt lat="46.31019892" lon="7.00686797"><ele></ele><time>2014-4-1T4:50:59Z</time></trkpt>
<trkpt lat="46.31026799" lon="7.00671298"><ele></ele><time>2014-4-1T4:51:2Z</time></trkpt>
<trkpt lat="46.31042196" lon="7.00660896"><ele></ele><time>2014-4-1T4:51:5Z</time></trkpt>
<trkpt lat="46.31054493" lon="7.00656597"><ele></ele><time>2014-4-1T4:51:8Z</time></trkpt>
<trkpt lat="46.31072195" lon="7.00630696"><ele></ele><time>2014-4-1T4:51:11Z</time></trkpt>
<trkpt lat="46.31084693" lon="7.00599994"><ele></ele><time>2014-4-1T4:51:14Z</time></trkpt>
<trkpt lat="46.31115496" lon="7.00540993"><ele></ele><time>2014-4-1T4:51:17Z</time></trkpt>
<trkpt lat="46.31133199" lon="7.00504700"><ele></ele><time>2014-4-1T4:51:20Z</time></trkpt>
<trkpt lat="46.31158797" lon="7.00456093"><ele></ele><time>2014-4-1T4:51:23Z</time></trkpt>
<trkpt lat="46.31196599" lon="7.00416296"><ele></ele><time>2014-4-1T4:51:26Z</time></trkpt>
<trkpt lat="46.31189592" lon="7.00372400"><ele></ele><time>2014-4-1T4:51:29Z</time></trkpt>
<trkpt lat="46.31182593" lon="7.00346299"><ele></ele><time>2014-4-1T4:51:32Z</time></trkpt>
<trkpt lat="46.31177497" lon="7.00270995"><ele></ele><time>2014-4-1T4:51:35Z</time></trkpt>
<trkpt lat="46.31180699" lon="7.00192298"><ele></ele><time>2014-4-1T4:51:38Z</time></trkpt>
<trkpt lat="46.31186198" lon="7.00167697"><ele></ele><time>2014-4-1T4:51:41Z</time></trkpt>
<trkpt lat="46.31193892" lon="7.00104296"><ele></ele><time>2014-4-1T4:51:44Z</time></trkpt>
<trkpt lat="46.31194194" lon="7.00062194"><ele></ele><time>2014-4-1T4:51:47Z</time></trkpt>
<trkpt lat="46.31155193" lon="7.00026495"><ele></ele><time>2014-4-1T4:51:50Z</time></trkpt>
<trkpt lat="46.31133593" lon="6.99992398"><ele></ele><time>2014-4-1T4:51:53Z</time></trkpt>
<trkpt lat="46.31117793" lon="6.99937496"><ele></ele><time>2014-4-1T4:51:56Z</time></trkpt>
<trkpt lat="46.31110995" lon="6.99882997"><ele></ele><time>2014-4-1T4:51:59Z</time></trkpt>
<trkpt lat="46.31102194" lon="6.99855899"><ele></ele><time>2014-4-1T4:52:2Z</time></trkpt>
<trkpt lat="46.31115798" lon="6.99748795"><ele></ele><time>2014-4-1T4:52:5Z</time></trkpt>
<trkpt lat="46.31112294" lon="6.99734596"><ele></ele><time>2014-4-1T4:52:8Z</time></trkpt>
<trkpt lat="46.31128698" lon="6.99726893"><ele></ele><time>2014-4-1T4:52:11Z</time></trkpt>
<trkpt lat="46.31139896" lon="6.99704798"><ele></ele><time>2014-4-1T4:52:14Z</time></trkpt>
<trkpt lat="46.31142293" lon="6.99695796"><ele></ele><time>2014-4-1T4:52:17Z</time></trkpt>
<trkpt lat="46.31146392" lon="6.99679694"><ele></ele><time>2014-4-1T4:52:20Z</time></trkpt>
<trkpt lat="46.31144992" lon="6.99661899"><ele></ele><time>2014-4-1T4:52:23Z</time></trkpt>
<trkpt lat="46.31115898" lon="6.99642998"><ele></ele><time>2014-4-1T4:52:26Z</time></trkpt>
<trkpt lat="46.31093594" lon="6.99605095"><ele></ele><time>2014-4-1T4:52:29Z</time></trkpt>
<trkpt lat="46.31082899" lon="6.99558492"><ele></ele><time>2014-4-1T4:52:32Z</time></trkpt>
<trkpt lat="46.31080393" lon="6.99548895"><ele></ele><time>2014-4-1T4:52:35Z</time></trkpt>
<trkpt lat="46.31071198" lon="6.99530496"><ele></ele><time>2014-4-1T4:52:38Z</time></trkpt>
<trkpt lat="46.31046094" lon="6.99512400"><ele></ele><time>2014-4-1T4:52:41Z</time></trkpt>
<trkpt lat="46.31034695" lon="6.99508192"><ele></ele><time>2014-4-1T4:52:44Z</time></trkpt>
<trkpt lat="46.30988896" lon="6.99489492"><ele></ele><time>2014-4-1T4:52:47Z</time></trkpt>
<trkpt lat="46.30955695" lon="6.99477095"><ele></ele><time>2014-4-1T4:52:50Z</time></trkpt>
<trkpt lat="46.30928295" lon="6.99453400"><ele></ele><time>2014-4-1T4:52:53Z</time></trkpt>
<trkpt lat="46.30900199" lon="6.99416092"><ele></ele><time>2014-4-1T4:52:56Z</time></trkpt>
<trkpt lat="46.30875899" lon="6.99364392"><ele></ele><time>2014-4-1T4:52:59Z</time></trkpt>
<trkpt lat="46.30903593" lon="6.98715792"><ele></ele><time>2014-4-1T4:53:2Z</time></trkpt>
<trkpt lat="46.30881197" lon="6.98670999"><ele></ele><time>2014-4-1T4:53:5Z</time></trkpt>
<trkpt lat="46.30875296" lon="6.98653992"><ele></ele><time>2014-4-1T4:53:8Z</time></trkpt>
<trkpt lat="46.30557597" lon="6.98598496"><ele></ele><time>2014-4-1T4:53:11Z</time></trkpt>
<trkpt lat="46.30542492" lon="6.98589695"><ele></ele><time>2014-4-1T4:53:14Z</time></trkpt>
<trkpt lat="46.30524396" lon="6.98580592"><ele></ele><time>2014-4-1T4:53:17Z</time></trkpt>
<trkpt lat="46.30516894" lon="6.98566795"><ele></ele><time>2014-4-1T4:53:20Z</time></trkpt>
<trkpt lat="46.30518797" lon="6.98567198"><ele></ele><time>2014-4-1T4:53:23Z</time></trkpt>
<trkpt lat="46.30548100" lon="6.98583400"><ele></ele><time>2014-4-1T4:53:26Z</time></trkpt>
<trkpt lat="46.30581795" lon="6.98601999"><ele></ele><time>2014-4-1T4:53:29Z</time></trkpt>
<trkpt lat="46.30598593" lon="6.98616198"><ele></ele><time>2014-4-1T4:53:32Z</time></trkpt>
<trkpt lat="46.30622800" lon="6.98637798"><ele></ele><time>2014-4-1T4:53:35Z</time></trkpt>
<trkpt lat="46.30660099" lon="6.98652995"><ele></ele><time>2014-4-1T4:53:38Z</time></trkpt>
<trkpt lat="46.30684398" lon="6.98652995"><ele></ele><time>2014-4-1T4:53:41Z</time></trkpt>
<trkpt lat="46.30707398" lon="6.98683094"><ele></ele><time>2014-4-1T4:53:44Z</time></trkpt>
<trkpt lat="46.30730197" lon="6.98731994"><ele></ele><time>2014-4-1T4:53:47Z</time></trkpt>
<trkpt lat="46.30751194" lon="6.98792394"><ele></ele><time>2014-4-1T4:53:50Z</time></trkpt>
<trkpt lat="46.30769692" lon="6.98823994"><ele></ele><time>2014-4-1T4:53:53Z</time></trkpt>
<trkpt lat="46.31041492" lon="6.98950494"><ele></ele><time>2014-4-1T4:53:56Z</time></trkpt>
<trkpt lat="46.31007998" lon="6.98943897"><ele></ele><time>2014-4-1T4:53:59Z</time></trkpt>
<trkpt lat="46.31042498" lon="6.98938793"><ele></ele><time>2014-4-1T4:54:2Z</time></trkpt>
<trkpt lat="46.31083393" lon="6.98920193"><ele></ele><time>2014-4-1T4:54:5Z</time></trkpt>
<trkpt lat="46.31101792" lon="6.98914099"><ele></ele><time>2014-4-1T4:54:8Z</time></trkpt>
<trkpt lat="46.31134498" lon="6.98903396"><ele></ele><time>2014-4-1T4:54:11Z</time></trkpt>
<trkpt lat="46.31137398" lon="6.98882994"><ele></ele><time>2014-4-1T4:54:14Z</time></trkpt>
<trkpt lat="46.31120592" lon="6.98880295"><ele></ele><time>2014-4-1T4:54:17Z</time></trkpt>
<trkpt lat="46.31089697" lon="6.98883397"><ele></ele><time>2014-4-1T4:54:20Z</time></trkpt>
<trkpt lat="46.31065398" lon="6.98870094"><ele></ele><time>2014-4-1T4:54:23Z</time></trkpt>
<trkpt lat="46.31042398" lon="6.98845494"><ele></ele><time>2014-4-1T4:54:26Z</time></trkpt>
<trkpt lat="46.31022692" lon="6.98831898"><ele></ele><time>2014-4-1T4:54:29Z</time></trkpt>
<trkpt lat="46.30984797" lon="6.98818596"><ele></ele><time>2014-4-1T4:54:32Z</time></trkpt>
<trkpt lat="46.30981294" lon="6.98819996"><ele></ele><time>2014-4-1T4:54:35Z</time></trkpt>
<trkpt lat="46.30972099" lon="6.98833600"><ele></ele><time>2014-4-1T4:54:38Z</time></trkpt>
<trkpt lat="46.30959995" lon="6.98838595"><ele></ele><time>2014-4-1T4:54:41Z</time></trkpt>
<trkpt lat="46.30956098" lon="6.98816693"><ele></ele><time>2014-4-1T4:54:44Z</time></trkpt>
<trkpt lat="46.30957992" lon="6.98787097"><ele></ele><time>2014-4-1T4:54:47Z</time></trkpt>
<trkpt lat="46.30955896" lon="6.98722397"><ele></ele><time>2014-4-1T4:54:50Z</time></trkpt>
<trkpt lat="46.30951898" lon="6.98698098"><ele></ele><time>2014-4-1T4:54:53Z</time></trkpt>
<trkpt lat="46.30932896" lon="6.98633892"><ele></ele><time>2014-4-1T4:54:56Z</time></trkpt>
<trkpt lat="46.30914599" lon="6.98575395"><ele></ele><time>2014-4-1T4:54:59Z</time></trkpt>
<trkpt lat="46.30900894" lon="6.98518893"><ele></ele><time>2014-4-1T4:55:2Z</time></trkpt>
<trkpt lat="46.30894499" lon="6.98460697"><ele></ele><time>2014-4-1T4:55:5Z</time></trkpt>
<trkpt lat="46.30861692" lon="6.98385696"><ele></ele><time>2014-4-1T4:55:8Z</time></trkpt>
<trkpt lat="46.30845699" lon="6.98333393"><ele></ele><time>2014-4-1T4:55:11Z</time></trkpt>
<trkpt lat="46.30770195" lon="6.98282992"><ele></ele><time>2014-4-1T4:55:14Z</time></trkpt>
<trkpt lat="46.30670392" lon="6.98241292"><ele></ele><time>2014-4-1T4:55:17Z</time></trkpt>
<trkpt lat="46.30636093" lon="6.98223598"><ele></ele><time>2014-4-1T4:55:20Z</time></trkpt>
<trkpt lat="46.30606497" lon="6.98212995"><ele></ele><time>2014-4-1T4:55:23Z</time></trkpt>
<trkpt lat="46.30577696" lon="6.98183298"><ele></ele><time>2014-4-1T4:55:26Z</time></trkpt>
<trkpt lat="46.30563296" lon="6.98150399"><ele></ele><time>2014-4-1T4:55:29Z</time></trkpt>
<trkpt lat="46.30568895" lon="6.98130693"><ele></ele><time>2014-4-1T4:55:32Z</time></trkpt>
<trkpt lat="46.30585793" lon="6.98141397"><ele></ele><time>2014-4-1T4:55:35Z</time></trkpt>
<trkpt lat="46.30608500" lon="6.98159795"><ele></ele><time>2014-4-1T4:55:38Z</time></trkpt>
<trkpt lat="46.30631399" lon="6.98158295"><ele></ele><time>2014-4-1T4:55:41Z</time></trkpt>
<trkpt lat="46.30648792" lon="6.98129595"><ele></ele><time>2014-4-1T4:55:44Z</time></trkpt>
<trkpt lat="46.30664499" lon="6.98126092"><ele></ele><time>2014-4-1T4:55:47Z</time></trkpt>
<trkpt lat="46.30667693" lon="6.98130098"><ele></ele><time>2014-4-1T4:55:50Z</time></trkpt>
<trkpt lat="46.30685898" lon="6.98144398"><ele></ele><time>2014-4-1T4:55:53Z</time></trkpt>
<trkpt lat="46.30695697" lon="6.98151992"><ele></ele><time>2014-4-1T4:55:56Z</time></trkpt>
<trkpt lat="46.30711799" lon="6.98162293"><ele></ele><time>2014-4-1T4:55:59Z</time></trkpt>
<trkpt lat="46.30715998" lon="6.98164095"><ele></ele><time>2014-4-1T4:56:2Z</time></trkpt>
<trkpt lat="46.30745100" lon="6.98168999"><ele></ele><time>2014-4-1T4:56:5Z</time></trkpt>
<trkpt lat="46.30765200" lon="6.98173894"><ele></ele><time>2014-4-1T4:56:8Z</time></trkpt>
<trkpt lat="46.30780597" lon="6.98179392"><ele></ele><time>2014-4-1T4:56:11Z</time></trkpt>
<trkpt lat="46.30795492" lon="6.98197799"><ele></ele><time>2014-4-1T4:56:14Z</time></trkpt>
<trkpt lat="46.30797897" lon="6.98206994"><ele></ele><time>2014-4-1T4:56:17Z</time></trkpt>
<trkpt lat="46.30803999" lon="6.98227596"><ele></ele><time>2014-4-1T4:56:20Z</time></trkpt>
<trkpt lat="46.30827997" lon="6.98265097"><ele></ele><time>2014-4-1T4:56:23Z</time></trkpt>
<trkpt lat="46.30850192" lon="6.98278500"><ele></ele><time>2014-4-1T4:56:26Z</time></trkpt>
<trkpt lat="46.30860594" lon="6.98279095"><ele></ele><time>2014-4-1T4:56:29Z</time></trkpt>
<trkpt lat="46.30913492" lon="6.98290193"><ele></ele><time>2014-4-1T4:56:32Z</time></trkpt>
<trkpt lat="46.30943500" lon="6.98302598"><ele></ele><time>2014-4-1T4:56:35Z</time></trkpt>
<trkpt lat="46.30956592" lon="6.98310695"><ele></ele><time>2014-4-1T4:56:38Z</time></trkpt>
<trkpt lat="46.30962694" lon="6.98315598"><ele></ele><time>2014-4-1T4:56:41Z</time></trkpt>
<trkpt lat="46.31018199" lon="6.98343292"><ele></ele><time>2014-4-1T4:56:44Z</time></trkpt>
<trkpt lat="46.31034292" lon="6.98354096"><ele></ele><time>2014-4-1T4:56:47Z</time></trkpt>
<trkpt lat="46.31049899" lon="6.98367700"><ele></ele><time>2014-4-1T4:56:50Z</time></trkpt>
<trkpt lat="46.31082798" lon="6.98398495"><ele></ele><time>2014-4-1T4:56:53Z</time></trkpt>
<trkpt lat="46.31076495" lon="6.98439097"><ele></ele><time>2014-4-1T4:56:56Z</time></trkpt>
<trkpt lat="46.31069195" lon="6.98476899"><ele></ele><time>2014-4-1T4:56:59Z</time></trkpt>
<trkpt lat="46.31070594" lon="6.98482398"><ele></ele><time>2014-4-1T4:57:2Z</time></trkpt>
<trkpt lat="46.31073092" lon="6.98485994"><ele></ele><time>2014-4-1T4:57:5Z</time></trkpt>
<trkpt lat="46.31086294" lon="6.98496899"><ele></ele><time>2014-4-1T4:57:8Z</time></trkpt>
<trkpt lat="46.31103099" lon="6.98499195"><ele></ele><time>2014-4-1T4:57:11Z</time></trkpt>
<trkpt lat="46.31110299" lon="6.98498097"><ele></ele><time>2014-4-1T4:57:14Z</time></trkpt>
<trkpt lat="46.31113593" lon="6.98497695"><ele></ele><time>2014-4-1T4:57:17Z</time></trkpt>
<trkpt lat="46.31122294" lon="6.98503898"><ele></ele><time>2014-4-1T4:57:20Z</time></trkpt>
<trkpt lat="46.31132998" lon="6.98510896"><ele></ele><time>2014-4-1T4:57:23Z</time></trkpt>
<trkpt lat="46.31151999" lon="6.98515892"><ele></ele><time>2014-4-1T4:57:26Z</time></trkpt>
<trkpt lat="46.31161194" lon="6.98517594"><ele></ele><time>2014-4-1T4:57:29Z</time></trkpt>
<trkpt lat="46.31202299" lon="6.98543100"><ele></ele><time>2014-4-1T4:57:32Z</time></trkpt>
<trkpt lat="46.31375394" lon="6.98556092"><ele></ele><time>2014-4-1T4:57:35Z</time></trkpt>
<trkpt lat="46.31436397" lon="6.98548498"><ele></ele><time>2014-4-1T4:57:38Z</time></trkpt>
<trkpt lat="46.31491299" lon="6.98509497"><ele></ele><time>2014-4-1T4:57:41Z</time></trkpt>
<trkpt lat="46.31511793" lon="6.98498097"><ele></ele><time>2014-4-1T4:57:44Z</time></trkpt>
<trkpt lat="46.31528196" lon="6.98501400"><ele></ele><time>2014-4-1T4:57:47Z</time></trkpt>
<trkpt lat="46.31538799" lon="6.98519496"><ele></ele><time>2014-4-1T4:57:50Z</time></trkpt>
<trkpt lat="46.31540492" lon="6.98549998"><ele></ele><time>2014-4-1T4:57:53Z</time></trkpt>
<trkpt lat="46.31544197" lon="6.98567994"><ele></ele><time>2014-4-1T4:57:56Z</time></trkpt>
<trkpt lat="46.31556292" lon="6.98584297"><ele></ele><time>2014-4-1T4:57:59Z</time></trkpt>
<trkpt lat="46.31563693" lon="6.98585093"><ele></ele><time>2014-4-1T4:58:2Z</time></trkpt>
<trkpt lat="46.31583894" lon="6.98592192"><ele></ele><time>2014-4-1T4:58:5Z</time></trkpt>
<trkpt lat="46.31587800" lon="6.98593894"><ele></ele><time>2014-4-1T4:58:8Z</time></trkpt>
<trkpt lat="46.31590398" lon="6.98585797"><ele></ele><time>2014-4-1T4:58:11Z</time></trkpt>
<trkpt lat="46.31593298" lon="6.98564096"><ele></ele><time>2014-4-1T4:58:14Z</time></trkpt>
<trkpt lat="46.31595000" lon="6.98513092"><ele></ele><time>2014-4-1T4:58:17Z</time></trkpt>
<trkpt lat="46.31592795" lon="6.98464796"><ele></ele><time>2014-4-1T4:58:20Z</time></trkpt>
<trkpt lat="46.31592494" lon="6.98410699"><ele></ele><time>2014-4-1T4:58:23Z</time></trkpt>
<trkpt lat="46.31601093" lon="6.98361196"><ele></ele><time>2014-4-1T4:58:26Z</time></trkpt>
<trkpt lat="46.31607992" lon="6.98332496"><ele></ele><time>2014-4-1T4:58:29Z</time></trkpt>
<trkpt lat="46.31619592" lon="6.98306596"><ele></ele><time>2014-4-1T4:58:32Z</time></trkpt>
<trkpt lat="46.31624596" lon="6.98293596"><ele></ele><time>2014-4-1T4:58:35Z</time></trkpt>
<trkpt lat="46.31656095" lon="6.98238200"><ele></ele><time>2014-4-1T4:58:38Z</time></trkpt>
<trkpt lat="46.31648392" lon="6.98183298"><ele></ele><time>2014-4-1T4:58:41Z</time></trkpt>
<trkpt lat="46.31640195" lon="6.98133996"><ele></ele><time>2014-4-1T4:58:44Z</time></trkpt>
<trkpt lat="46.31646498" lon="6.98096998"><ele></ele><time>2014-4-1T4:58:47Z</time></trkpt>
<trkpt lat="46.31649792" lon="6.98091692"><ele></ele><time>2014-4-1T4:58:50Z</time></trkpt>
<trkpt lat="46.31648996" lon="6.98071995"><ele></ele><time>2014-4-1T4:58:53Z</time></trkpt>
<trkpt lat="46.31641293" lon="6.98067393"><ele></ele><time>2014-4-1T4:58:56Z</time></trkpt>
<trkpt lat="46.31628796" lon="6.98061392"><ele></ele><time>2014-4-1T4:58:59Z</time></trkpt>
<trkpt lat="46.31641595" lon="6.98067393"><ele></ele><time>2014-4-1T4:59:2Z</time></trkpt>
<trkpt lat="46.31642592" lon="6.98067192"><ele></ele><time>2014-4-1T4:59:5Z</time></trkpt>
<trkpt lat="46.31615493" lon="6.98068298"><ele></ele><time>2014-4-1T4:59:8Z</time></trkpt>
<trkpt lat="46.31615192" lon="6.98069095"><ele></ele><time>2014-4-1T4:59:11Z</time></trkpt>
<trkpt lat="46.31616399" lon="6.98074996"><ele></ele><time>2014-4-1T4:59:14Z</time></trkpt>
<trkpt lat="46.31618000" lon="6.98073898"><ele></ele><time>2014-4-1T4:59:17Z</time></trkpt>
<trkpt lat="46.31619592" lon="6.98073294"><ele></ele><time>2014-4-1T4:59:20Z</time></trkpt>
<trkpt lat="46.31626398" lon="6.98066396"><ele></ele><time>2014-4-1T4:59:23Z</time></trkpt>
</trkseg></trk></gpx>